Wetterdaten: Sonntag, 15.10.2023
Datum Zeit Temp. Aussen Temp. o. S. Temp +5cm Feuchte Auss Luftdruck Regen Sonnenschein Regendauer Solar Windben Empfang
15.10.2023 00:00 8,4 C 7,8 C 4,4 C 90 % 1019,0 hPa 0,0 l/m 0 min 0 min 0 W/m 3,2 km/h (1 Bft) 95,74 %
15.10.2023 00:02 8,4 C 7,8 C 4,4 C 90 % 1019,0 hPa 0,0 l/m 0 min 0 min 0 W/m 3,2 km/h (1 Bft) 93,75 %
15.10.2023 00:04 8,4 C 7,8 C 4,4 C 90 % 1019,0 hPa 0,0 l/m 0 min 0 min 0 W/m 3,2 km/h (1 Bft) 98,04 %
15.10.2023 00:10 8,4 C 7,2 C 4,4 C 90 % 1018,9 hPa 0,0 l/m 0 min 0 min 0 W/m 6,4 km/h (2 Bft) 96,43 %
15.10.2023 00:12 8,3 C 7,2 C 4,4 C 90 % 1018,9 hPa 0,0 l/m 0 min 0 min 0 W/m 3,2 km/h (1 Bft) 100,00 %
15.10.2023 00:16 8,3 C 7,2 C 4,4 C 90 % 1018,9 hPa 0,0 l/m 0 min 0 min 0 W/m 3,2 km/h (1 Bft) 95,74 %
15.10.2023 00:18 8,3 C 7,2 C 4,4 C 90 % 1018,9 hPa 0,0 l/m 0 min 0 min 0 W/m 0,0 km/h (0 Bft) 97,87 %
15.10.2023 00:20 8,3 C 7,2 C 4,4 C 90 % 1018,8 hPa 0,0 l/m 0 min 0 min 0 W/m 3,2 km/h (1 Bft) 93,62 %
15.10.2023 00:22 8,3 C 7,2 C 4,4 C 90 % 1018,8 hPa 0,0 l/m 0 min 0 min 0 W/m 3,2 km/h (1 Bft) 97,83 %
15.10.2023 00:24 8,3 C 7,2 C 4,4 C 90 % 1018,8 hPa 0,0 l/m 0 min 0 min 0 W/m 12,9 km/h (3 Bft) 97,87 %
15.10.2023 00:26 8,2 C 7,2 C 4,4 C 90 % 1018,8 hPa 0,0 l/m 0 min 0 min 0 W/m 6,4 km/h (2 Bft) 97,87 %
15.10.2023 00:28 8,2 C 7,2 C 4,4 C 90 % 1018,7 hPa 0,0 l/m 0 min 0 min 0 W/m 0,0 km/h (0 Bft) 93,62 %
15.10.2023 00:30 8,2 C 7,2 C 4,4 C 91 % 1018,8 hPa 0,0 l/m 0 min 0 min 0 W/m 3,2 km/h (1 Bft) 95,74 %
15.10.2023 00:32 8,2 C 7,2 C 4,4 C 91 % 1018,8 hPa 0,0 l/m 0 min 0 min 0 W/m 3,2 km/h (1 Bft) 93,62 %
15.10.2023 00:34 8,2 C 7,2 C 4,4 C 91 % 1018,7 hPa 0,0 l/m 0 min 0 min 0 W/m 6,4 km/h (2 Bft) 93,62 %
15.10.2023 00:36 8,2 C 7,2 C 4,4 C 91 % 1018,7 hPa 0,0 l/m 0 min 0 min 0 W/m 3,2 km/h (1 Bft) 95,65 %
15.10.2023 00:38 8,1 C 7,2 C 4,4 C 91 % 1018,7 hPa 0,0 l/m 0 min 0 min 0 W/m 3,2 km/h (1 Bft) 93,62 %
15.10.2023 00:40 8,1 C 7,2 C 4,4 C 91 % 1018,7 hPa 0,0 l/m 0 min 0 min 0 W/m 6,4 km/h (2 Bft) 93,62 %
15.10.2023 00:42 8,1 C 7,2 C 4,4 C 91 % 1018,7 hPa 0,0 l/m 0 min 0 min 0 W/m 9,7 km/h (2 Bft) 93,62 %
15.10.2023 00:44 8,1 C 7,2 C 4,4 C 91 % 1018,7 hPa 0,0 l/m 0 min 0 min 0 W/m 6,4 km/h (2 Bft) 95,74 %
15.10.2023 00:46 8,1 C 7,2 C 4,4 C 91 % 1018,7 hPa 0,0 l/m 0 min 0 min 0 W/m 12,9 km/h (3 Bft) 95,74 %
15.10.2023 00:48 8,1 C 7,2 C 4,4 C 91 % 1018,7 hPa 0,0 l/m 0 min 0 min 0 W/m 6,4 km/h (2 Bft) 97,87 %
15.10.2023 00:50 8,1 C 7,2 C 4,4 C 91 % 1018,7 hPa 0,0 l/m 0 min 0 min 0 W/m 6,4 km/h (2 Bft) 97,87 %
15.10.2023 00:52 8,1 C 7,2 C 4,4 C 91 % 1018,7 hPa 0,0 l/m 0 min 0 min 0 W/m 6,4 km/h (2 Bft) 95,65 %
15.10.2023 00:54 8,1 C 7,2 C 4,4 C 91 % 1018,7 hPa 0,0 l/m 0 min 0 min 0 W/m 6,4 km/h (2 Bft) 97,87 %
15.10.2023 00:56 8,1 C 7,2 C 4,4 C 91 % 1018,7 hPa 0,0 l/m 0 min 0 min 0 W/m 0,0 km/h (0 Bft) 95,74 %
15.10.2023 00:58 8,1 C 7,2 C 4,4 C 91 % 1018,8 hPa 0,0 l/m 0 min 0 min 0 W/m 0,0 km/h (0 Bft) 97,87 %
15.10.2023 01:00 8,1 C 7,2 C 4,4 C 91 % 1018,7 hPa 0,0 l/m 0 min 0 min 0 W/m 0,0 km/h (0 Bft) 97,87 %
15.10.2023 01:02 8,0 C 7,2 C 4,4 C 91 % 1018,8 hPa 0,0 l/m 0 min 0 min 0 W/m 3,2 km/h (1 Bft) 97,87 %
15.10.2023 01:04 8,0 C 7,2 C 4,4 C 91 % 1018,8 hPa 0,0 l/m 0 min 0 min 0 W/m 0,0 km/h (0 Bft) 98,00 %
15.10.2023 01:06 8,0 C 7,2 C 4,4 C 91 % 1018,8 hPa 0,0 l/m 0 min 0 min 0 W/m 0,0 km/h (0 Bft) 95,74 %
15.10.2023 01:08 8,0 C 7,2 C 4,4 C 91 % 1018,8 hPa 0,0 l/m 0 min 0 min 0 W/m 0,0 km/h (0 Bft) 100,00 %
15.10.2023 01:10 8,0 C 7,2 C 4,4 C 91 % 1018,8 hPa 0,0 l/m 0 min 0 min 0 W/m 3,2 km/h (1 Bft) 100,00 %
15.10.2023 01:12 8,0 C 7,2 C 4,4 C 91 % 1018,9 hPa 0,0 l/m 0 min 0 min 0 W/m 6,4 km/h (2 Bft) 100,00 %
15.10.2023 01:14 8,0 C 7,2 C 4,4 C 91 % 1018,7 hPa 0,0 l/m 0 min 0 min 0 W/m 3,2 km/h (1 Bft) 100,00 %
15.10.2023 01:16 8,0 C 7,2 C 4,4 C 91 % 1018,9 hPa 0,0 l/m 0 min 0 min 0 W/m 6,4 km/h (2 Bft) 97,87 %
15.10.2023 01:18 7,9 C 7,2 C 4,4 C 91 % 1018,9 hPa 0,0 l/m 0 min 0 min 0 W/m 3,2 km/h (1 Bft) 97,87 %
15.10.2023 01:20 7,9 C 7,2 C 4,4 C 91 % 1018,9 hPa 0,0 l/m 0 min 0 min 0 W/m 3,2 km/h (1 Bft) 100,00 %
15.10.2023 01:22 7,9 C 7,2 C 4,4 C 91 % 1018,9 hPa 0,0 l/m 0 min 0 min 0 W/m 3,2 km/h (1 Bft) 97,83 %
15.10.2023 01:24 7,9 C 7,2 C 4,4 C 91 % 1018,9 hPa 0,0 l/m 0 min 0 min 0 W/m 12,9 km/h (3 Bft) 100,00 %
15.10.2023 01:26 7,9 C 7,2 C 4,4 C 91 % 1018,9 hPa 0,0 l/m 0 min 0 min 0 W/m 6,4 km/h (2 Bft) 97,83 %
15.10.2023 01:28 7,9 C 7,2 C 4,4 C 91 % 1018,9 hPa 0,0 l/m 0 min 0 min 0 W/m 3,2 km/h (1 Bft) 100,00 %
15.10.2023 01:30 7,9 C 7,2 C 4,4 C 91 % 1018,9 hPa 0,0 l/m 0 min 0 min 0 W/m 12,9 km/h (3 Bft) 100,00 %
15.10.2023 01:32 7,9 C 7,2 C 4,4 C 91 % 1018,8 hPa 0,0 l/m 0 min 0 min 0 W/m 3,2 km/h (1 Bft) 100,00 %
15.10.2023 01:34 7,9 C 7,2 C 4,4 C 91 % 1018,8 hPa 0,0 l/m 0 min 0 min 0 W/m 6,4 km/h (2 Bft) 100,00 %
15.10.2023 01:36 7,9 C 7,2 C 4,4 C 91 % 1018,8 hPa 0,0 l/m 0 min 0 min 0 W/m 3,2 km/h (1 Bft) 100,00 %
15.10.2023 01:38 7,9 C 7,2 C 4,4 C 91 % 1018,8 hPa 0,0 l/m 0 min 0 min 0 W/m 3,2 km/h (1 Bft) 100,00 %
15.10.2023 01:40 7,9 C 7,2 C 4,4 C 91 % 1018,8 hPa 0,0 l/m 0 min 0 min 0 W/m 3,2 km/h (1 Bft) 100,00 %
15.10.2023 01:42 7,9 C 7,2 C 4,4 C 91 % 1018,8 hPa 0,0 l/m 0 min 0 min 0 W/m 3,2 km/h (1 Bft) 100,00 %
15.10.2023 01:44 7,9 C 7,2 C 4,4 C 91 % 1018,8 hPa 0,0 l/m 0 min 0 min 0 W/m 6,4 km/h (2 Bft) 100,00 %
15.10.2023 01:46 7,8 C 7,2 C 4,4 C 91 % 1018,8 hPa 0,0 l/m 0 min 0 min 0 W/m 9,7 km/h (2 Bft) 100,00 %
15.10.2023 01:48 7,8 C 7,2 C 4,4 C 91 % 1018,8 hPa 0,0 l/m 0 min 0 min 0 W/m 6,4 km/h (2 Bft) 100,00 %
15.10.2023 01:50 7,8 C 7,2 C 4,4 C 91 % 1018,8 hPa 0,0 l/m 0 min 0 min 0 W/m 6,4 km/h (2 Bft) 100,00 %
15.10.2023 01:52 7,8 C 7,2 C 4,4 C 91 % 1018,8 hPa 0,0 l/m 0 min 0 min 0 W/m 6,4 km/h (2 Bft) 97,83 %
15.10.2023 01:54 7,8 C 7,2 C 4,4 C 92 % 1018,8 hPa 0,0 l/m 0 min 0 min 0 W/m 6,4 km/h (2 Bft) 97,87 %
15.10.2023 01:56 7,8 C 7,2 C 4,4 C 92 % 1018,7 hPa 0,0 l/m 0 min 0 min 0 W/m 3,2 km/h (1 Bft) 97,87 %
15.10.2023 01:58 7,8 C 7,2 C 4,4 C 92 % 1018,7 hPa 0,0 l/m 0 min 0 min 0 W/m 6,4 km/h (2 Bft) 97,87 %
15.10.2023 02:00 7,8 C 7,2 C 4,4 C 92 % 1018,7 hPa 0,0 l/m 0 min 0 min 0 W/m 3,2 km/h (1 Bft) 95,74 %
15.10.2023 02:02 7,8 C 7,2 C 4,4 C 92 % 1018,7 hPa 0,0 l/m 0 min 0 min 0 W/m 3,2 km/h (1 Bft) 97,44 %
15.10.2023 02:04 7,8 C 7,2 C 4,4 C 92 % 1018,7 hPa 0,0 l/m 0 min 0 min 0 W/m 0,0 km/h (0 Bft) 95,24 %
15.10.2023 02:06 7,8 C 7,2 C 4,4 C 92 % 1018,6 hPa 0,0 l/m 0 min 0 min 0 W/m 6,4 km/h (2 Bft) 98,11 %
15.10.2023 02:08 7,8 C 7,2 C 4,4 C 92 % 1018,6 hPa 0,0 l/m 0 min 0 min 0 W/m 3,2 km/h (1 Bft) 97,83 %
15.10.2023 02:10 7,8 C 7,2 C 4,4 C 92 % 1018,6 hPa 0,0 l/m 0 min 0 min 0 W/m 6,4 km/h (2 Bft) 95,92 %
15.10.2023 02:12 7,8 C 7,2 C 4,4 C 92 % 1018,7 hPa 0,0 l/m 0 min 0 min 0 W/m 6,4 km/h (2 Bft) 95,24 %
15.10.2023 02:14 7,8 C 7,2 C 4,4 C 92 % 1018,7 hPa 0,0 l/m 0 min 0 min 0 W/m 3,2 km/h (1 Bft) 97,14 %
15.10.2023 02:16 7,8 C 7,2 C 4,4 C 92 % 1018,7 hPa 0,0 l/m 0 min 0 min 0 W/m 3,2 km/h (1 Bft) 98,25 %
15.10.2023 02:18 7,8 C 7,2 C 4,4 C 92 % 1018,7 hPa 0,0 l/m 0 min 0 min 0 W/m 6,4 km/h (2 Bft) 93,62 %
15.10.2023 02:20 7,8 C 7,2 C 4,4 C 92 % 1018,7 hPa 0,0 l/m 0 min 0 min 0 W/m 0,0 km/h (0 Bft) 97,87 %
15.10.2023 02:22 7,8 C 7,2 C 4,4 C 92 % 1018,7 hPa 0,0 l/m 0 min 0 min 0 W/m 9,7 km/h (2 Bft) 100,00 %
15.10.2023 02:24 7,8 C 7,2 C 4,4 C 92 % 1018,7 hPa 0,0 l/m 0 min 0 min 0 W/m 3,2 km/h (1 Bft) 97,87 %
15.10.2023 02:26 7,8 C 7,2 C 4,4 C 92 % 1018,6 hPa 0,0 l/m 0 min 0 min 0 W/m 3,2 km/h (1 Bft) 100,00 %
15.10.2023 02:28 7,7 C 7,2 C 4,4 C 92 % 1018,7 hPa 0,0 l/m 0 min 0 min 0 W/m 3,2 km/h (1 Bft) 100,00 %
15.10.2023 02:30 7,7 C 7,2 C 4,4 C 92 % 1018,6 hPa 0,0 l/m 0 min 0 min 0 W/m 3,2 km/h (1 Bft) 97,87 %
15.10.2023 02:32 7,7 C 7,2 C 3,9 C 92 % 1018,7 hPa 0,0 l/m 0 min 0 min 0 W/m 6,4 km/h (2 Bft) 100,00 %
15.10.2023 02:34 7,7 C 7,2 C 3,9 C 92 % 1018,7 hPa 0,0 l/m 0 min 0 min 0 W/m 6,4 km/h (2 Bft) 100,00 %
15.10.2023 02:36 7,7 C 7,2 C 3,9 C 92 % 1018,7 hPa 0,0 l/m 0 min 0 min 0 W/m 6,4 km/h (2 Bft) 95,74 %
15.10.2023 02:38 7,7 C 7,2 C 3,9 C 92 % 1018,7 hPa 0,0 l/m 0 min 0 min 0 W/m 6,4 km/h (2 Bft) 100,00 %
15.10.2023 02:40 7,7 C 7,2 C 3,9 C 92 % 1018,7 hPa 0,0 l/m 0 min 0 min 0 W/m 3,2 km/h (1 Bft) 100,00 %
15.10.2023 02:42 7,6 C 6,7 C 3,9 C 92 % 1018,6 hPa 0,0 l/m 0 min 0 min 0 W/m 3,2 km/h (1 Bft) 97,87 %
15.10.2023 02:44 7,6 C 6,7 C 3,9 C 92 % 1018,6 hPa 0,0 l/m 0 min 0 min 0 W/m 0,0 km/h (0 Bft) 100,00 %
15.10.2023 02:46 7,6 C 6,7 C 3,9 C 92 % 1018,7 hPa 0,0 l/m 0 min 0 min 0 W/m 0,0 km/h (0 Bft) 97,83 %
15.10.2023 02:48 7,6 C 6,7 C 3,9 C 92 % 1018,6 hPa 0,0 l/m 0 min 0 min 0 W/m 0,0 km/h (0 Bft) 95,74 %
15.10.2023 02:50 7,6 C 6,7 C 3,9 C 92 % 1018,6 hPa 0,0 l/m 0 min 0 min 0 W/m 0,0 km/h (0 Bft) 95,74 %
15.10.2023 02:52 7,6 C 6,7 C 3,9 C 92 % 1018,6 hPa 0,0 l/m 0 min 0 min 0 W/m 0,0 km/h (0 Bft) 93,62 %
15.10.2023 02:54 7,6 C 6,7 C 3,9 C 92 % 1018,6 hPa 0,0 l/m 0 min 0 min 0 W/m 0,0 km/h (0 Bft) 95,74 %
15.10.2023 02:56 7,6 C 6,7 C 3,9 C 92 % 1018,6 hPa 0,0 l/m 0 min 0 min 0 W/m 0,0 km/h (0 Bft) 95,65 %
15.10.2023 02:58 7,6 C 6,7 C 3,9 C 92 % 1018,7 hPa 0,0 l/m 0 min 0 min 0 W/m 0,0 km/h (0 Bft) 95,74 %
15.10.2023 03:00 7,6 C 6,7 C 3,9 C 92 % 1018,6 hPa 0,0 l/m 0 min 0 min 0 W/m 0,0 km/h (0 Bft) 91,49 %
15.10.2023 03:02 7,6 C 6,7 C 3,9 C 92 % 1018,6 hPa 0,0 l/m 0 min 0 min 0 W/m 0,0 km/h (0 Bft) 95,74 %
15.10.2023 03:04 7,6 C 6,7 C 3,9 C 92 % 1018,7 hPa 0,0 l/m 0 min 0 min 0 W/m 0,0 km/h (0 Bft) 93,02 %
15.10.2023 03:06 7,6 C 6,7 C 3,9 C 92 % 1018,6 hPa 0,0 l/m 0 min 0 min 0 W/m 6,4 km/h (2 Bft) 93,62 %
15.10.2023 03:08 7,6 C 6,7 C 3,9 C 92 % 1018,6 hPa 0,0 l/m 0 min 0 min 0 W/m 3,2 km/h (1 Bft) 95,74 %
15.10.2023 03:10 7,5 C 6,7 C 3,9 C 92 % 1018,6 hPa 0,0 l/m 0 min 0 min 0 W/m 6,4 km/h (2 Bft) 95,65 %
15.10.2023 03:12 7,5 C 6,7 C 3,9 C 92 % 1018,5 hPa 0,0 l/m 0 min 0 min 0 W/m 6,4 km/h (2 Bft) 93,62 %
15.10.2023 03:14 7,6 C 6,7 C 3,9 C 92 % 1018,5 hPa 0,0 l/m 0 min 0 min 0 W/m 3,2 km/h (1 Bft) 93,62 %
15.10.2023 03:16 7,5 C 6,7 C 3,9 C 92 % 1018,6 hPa 0,0 l/m 0 min 0 min 0 W/m 3,2 km/h (1 Bft) 93,62 %
15.10.2023 03:18 7,5 C 6,7 C 3,9 C 92 % 1018,5 hPa 0,0 l/m 0 min 0 min 0 W/m 3,2 km/h (1 Bft) 93,62 %
15.10.2023 03:20 7,5 C 6,7 C 3,9 C 92 % 1018,5 hPa 0,0 l/m 0 min 0 min 0 W/m 3,2 km/h (1 Bft) 93,62 %
15.10.2023 03:22 7,5 C 6,7 C 3,9 C 92 % 1018,6 hPa 0,0 l/m 0 min 0 min 0 W/m 6,4 km/h (2 Bft) 95,65 %
15.10.2023 03:24 7,5 C 6,7 C 3,9 C 92 % 1018,6 hPa 0,0 l/m 0 min 0 min 0 W/m 3,2 km/h (1 Bft) 93,62 %
15.10.2023 03:26 7,5 C 6,7 C 3,9 C 92 % 1018,6 hPa 0,0 l/m 0 min 0 min 0 W/m 6,4 km/h (2 Bft) 87,23 %
15.10.2023 03:28 7,5 C 6,7 C 3,9 C 92 % 1018,5 hPa 0,0 l/m 0 min 0 min 0 W/m 3,2 km/h (1 Bft) 61,70 %
15.10.2023 03:30 7,5 C 6,7 C 3,9 C 92 % 1018,5 hPa 0,0 l/m 0 min 0 min 0 W/m 6,4 km/h (2 Bft) 95,74 %
15.10.2023 03:32 7,5 C 6,7 C 3,9 C 92 % 1018,5 hPa 0,0 l/m 0 min 0 min 0 W/m 3,2 km/h (1 Bft) 95,74 %
15.10.2023 03:34 7,5 C 6,7 C 3,9 C 92 % 1018,5 hPa 0,0 l/m 0 min 0 min 0 W/m 6,4 km/h (2 Bft) 95,74 %
15.10.2023 03:36 7,5 C 6,7 C 3,9 C 92 % 1018,5 hPa 0,0 l/m 0 min 0 min 0 W/m 6,4 km/h (2 Bft) 93,48 %
15.10.2023 03:38 7,5 C 6,7 C 3,9 C 92 % 1018,5 hPa 0,0 l/m 0 min 0 min 0 W/m 3,2 km/h (1 Bft) 95,74 %
15.10.2023 03:40 7,5 C 6,7 C 3,9 C 92 % 1018,5 hPa 0,0 l/m 0 min 0 min 0 W/m 6,4 km/h (2 Bft) 97,87 %
15.10.2023 03:42 7,5 C 6,7 C 3,9 C 92 % 1018,5 hPa 0,0 l/m 0 min 0 min 0 W/m 6,4 km/h (2 Bft) 95,74 %
15.10.2023 03:44 7,6 C 7,2 C 3,9 C 92 % 1018,5 hPa 0,0 l/m 0 min 0 min 0 W/m 6,4 km/h (2 Bft) 95,74 %
15.10.2023 03:46 7,6 C 7,2 C 3,9 C 92 % 1018,5 hPa 0,0 l/m 0 min 0 min 0 W/m 6,4 km/h (2 Bft) 95,74 %
15.10.2023 03:48 7,6 C 7,2 C 3,9 C 92 % 1018,5 hPa 0,0 l/m 0 min 0 min 0 W/m 3,2 km/h (1 Bft) 95,65 %
15.10.2023 03:50 7,6 C 7,2 C 3,9 C 92 % 1018,5 hPa 0,0 l/m 0 min 0 min 0 W/m 9,7 km/h (2 Bft) 95,74 %
15.10.2023 03:52 7,6 C 6,7 C 3,9 C 92 % 1018,4 hPa 0,0 l/m 0 min 0 min 0 W/m 12,9 km/h (3 Bft) 93,62 %
15.10.2023 03:54 7,6 C 7,2 C 3,9 C 92 % 1018,5 hPa 0,0 l/m 0 min 0 min 0 W/m 12,9 km/h (3 Bft) 94,34 %
15.10.2023 03:56 7,6 C 7,2 C 3,9 C 92 % 1018,6 hPa 0,0 l/m 0 min 0 min 0 W/m 9,7 km/h (2 Bft) 95,74 %
15.10.2023 03:58 7,6 C 7,2 C 3,9 C 92 % 1018,9 hPa 0,0 l/m 0 min 0 min 0 W/m 9,7 km/h (2 Bft) 97,87 %
15.10.2023 04:00 7,6 C 7,2 C 3,9 C 93 % 1019,0 hPa 0,0 l/m 0 min 0 min 0 W/m 12,9 km/h (3 Bft) 100,00 %
15.10.2023 04:06 7,6 C 7,2 C 3,9 C 93 % 1018,8 hPa 0,0 l/m 0 min 0 min 0 W/m 9,7 km/h (2 Bft) 100,00 %
15.10.2023 04:08 7,6 C 7,2 C 3,9 C 93 % 1018,8 hPa 0,0 l/m 0 min 0 min 0 W/m 3,2 km/h (1 Bft) 100,00 %
15.10.2023 04:10 7,6 C 7,2 C 3,9 C 93 % 1018,8 hPa 0,0 l/m 0 min 0 min 0 W/m 9,7 km/h (2 Bft) 100,00 %
15.10.2023 04:12 7,6 C 7,2 C 3,9 C 93 % 1018,8 hPa 0,0 l/m 0 min 0 min 0 W/m 3,2 km/h (1 Bft) 97,87 %
15.10.2023 04:14 7,6 C 7,2 C 3,9 C 93 % 1018,8 hPa 0,0 l/m 0 min 0 min 0 W/m 3,2 km/h (1 Bft) 100,00 %
15.10.2023 04:16 7,6 C 7,2 C 3,9 C 93 % 1018,9 hPa 0,0 l/m 0 min 0 min 0 W/m 9,7 km/h (2 Bft) 97,87 %
15.10.2023 04:18 7,6 C 6,7 C 3,9 C 93 % 1018,9 hPa 0,0 l/m 0 min 0 min 0 W/m 3,2 km/h (1 Bft) 100,00 %
15.10.2023 04:20 7,6 C 6,7 C 3,9 C 93 % 1018,9 hPa 0,0 l/m 0 min 0 min 0 W/m 6,4 km/h (2 Bft) 100,00 %
15.10.2023 04:22 7,6 C 7,2 C 3,9 C 93 % 1018,8 hPa 0,0 l/m 0 min 0 min 0 W/m 0,0 km/h (0 Bft) 100,00 %
15.10.2023 04:24 7,6 C 7,2 C 3,9 C 93 % 1018,8 hPa 0,0 l/m 0 min 0 min 0 W/m 0,0 km/h (0 Bft) 97,87 %
15.10.2023 04:26 7,6 C 7,2 C 3,9 C 93 % 1018,7 hPa 0,0 l/m 0 min 0 min 0 W/m 3,2 km/h (1 Bft) 100,00 %
15.10.2023 04:28 7,7 C 7,2 C 3,9 C 93 % 1018,8 hPa 0,0 l/m 0 min 0 min 0 W/m 0,0 km/h (0 Bft) 100,00 %
15.10.2023 04:30 7,7 C 7,2 C 3,9 C 93 % 1018,8 hPa 0,0 l/m 0 min 2 min 0 W/m 0,0 km/h (0 Bft) 100,00 %
15.10.2023 04:32 7,7 C 7,2 C 4,4 C 93 % 1018,8 hPa 0,0 l/m 0 min 0 min 0 W/m 3,2 km/h (1 Bft) 100,00 %
15.10.2023 04:34 7,7 C 7,2 C 4,4 C 93 % 1018,8 hPa 0,0 l/m 0 min 0 min 0 W/m 3,2 km/h (1 Bft) 100,00 %
15.10.2023 04:36 7,7 C 7,2 C 4,4 C 93 % 1018,8 hPa 0,0 l/m 0 min 0 min 0 W/m 3,2 km/h (1 Bft) 100,00 %
15.10.2023 04:38 7,7 C 7,2 C 4,4 C 93 % 1018,7 hPa 0,0 l/m 0 min 0 min 0 W/m 3,2 km/h (1 Bft) 100,00 %
15.10.2023 04:40 7,8 C 7,2 C 4,4 C 93 % 1018,7 hPa 0,0 l/m 0 min 0 min 0 W/m 3,2 km/h (1 Bft) 100,00 %
15.10.2023 04:42 7,8 C 7,2 C 4,4 C 93 % 1018,7 hPa 0,0 l/m 0 min 0 min 0 W/m 0,0 km/h (0 Bft) 97,14 %
15.10.2023 04:44 7,8 C 7,2 C 4,4 C 93 % 1018,7 hPa 0,0 l/m 0 min 0 min 0 W/m 0,0 km/h (0 Bft) 65,52 %
15.10.2023 04:46 7,8 C 7,2 C 4,4 C 93 % 1018,6 hPa 0,0 l/m 0 min 0 min 0 W/m 0,0 km/h (0 Bft) 100,00 %
15.10.2023 04:48 7,8 C 7,2 C 4,4 C 93 % 1018,5 hPa 0,0 l/m 0 min 0 min 0 W/m 0,0 km/h (0 Bft) 97,87 %
15.10.2023 04:50 7,8 C 7,2 C 4,4 C 93 % 1018,6 hPa 0,0 l/m 0 min 0 min 0 W/m 0,0 km/h (0 Bft) 100,00 %
15.10.2023 04:52 7,8 C 7,2 C 4,4 C 93 % 1018,7 hPa 0,0 l/m 0 min 0 min 0 W/m 0,0 km/h (0 Bft) 100,00 %
15.10.2023 04:54 7,8 C 7,2 C 4,4 C 93 % 1018,7 hPa 0,0 l/m 0 min 0 min 0 W/m 0,0 km/h (0 Bft) 100,00 %
15.10.2023 04:56 7,8 C 7,2 C 4,4 C 93 % 1018,8 hPa 0,0 l/m 0 min 0 min 0 W/m 0,0 km/h (0 Bft) 100,00 %
15.10.2023 04:58 7,8 C 7,2 C 4,4 C 93 % 1018,8 hPa 0,0 l/m 0 min 0 min 0 W/m 0,0 km/h (0 Bft) 100,00 %
15.10.2023 05:00 7,9 C 7,2 C 4,4 C 93 % 1018,9 hPa 0,0 l/m 0 min 0 min 0 W/m 0,0 km/h (0 Bft) 100,00 %
15.10.2023 05:02 7,8 C 7,2 C 4,4 C 93 % 1019,0 hPa 0,0 l/m 0 min 0 min 0 W/m 0,0 km/h (0 Bft) 97,87 %
15.10.2023 05:04 7,8 C 7,2 C 4,4 C 93 % 1019,1 hPa 0,0 l/m 0 min 0 min 0 W/m 0,0 km/h (0 Bft) 100,00 %
15.10.2023 05:08 7,9 C 7,2 C 4,4 C 93 % 1018,9 hPa 0,0 l/m 0 min 0 min 0 W/m 0,0 km/h (0 Bft) 100,00 %
15.10.2023 05:09 7,8 C 7,2 C 4,4 C 93 % 1018,9 hPa 0,0 l/m 0 min 0 min 0 W/m 0,0 km/h (0 Bft) 100,00 %
15.10.2023 05:10 7,8 C 7,2 C 4,4 C 93 % 1018,9 hPa 0,0 l/m 0 min 0 min 0 W/m 0,0 km/h (0 Bft) 100,00 %
15.10.2023 05:14 7,9 C 7,2 C 4,4 C 93 % 1019,0 hPa 0,0 l/m 0 min 0 min 0 W/m 0,0 km/h (0 Bft) 95,74 %
15.10.2023 05:16 7,9 C 7,2 C 4,4 C 93 % 1019,1 hPa 0,0 l/m 0 min 0 min 0 W/m 9,7 km/h (2 Bft) 95,74 %
15.10.2023 05:18 7,9 C 7,2 C 4,4 C 93 % 1019,1 hPa 0,0 l/m 0 min 0 min 0 W/m 9,7 km/h (2 Bft) 95,74 %
15.10.2023 05:20 7,9 C 7,2 C 3,9 C 93 % 1019,1 hPa 0,0 l/m 0 min 0 min 0 W/m 6,4 km/h (2 Bft) 95,74 %
15.10.2023 05:22 7,8 C 7,2 C 3,9 C 93 % 1019,1 hPa 0,0 l/m 0 min 0 min 0 W/m 6,4 km/h (2 Bft) 95,65 %
15.10.2023 05:24 7,8 C 7,2 C 3,9 C 93 % 1019,1 hPa 0,0 l/m 0 min 0 min 0 W/m 6,4 km/h (2 Bft) 93,62 %
15.10.2023 05:26 7,8 C 7,2 C 3,9 C 93 % 1019,1 hPa 0,0 l/m 0 min 0 min 0 W/m 6,4 km/h (2 Bft) 93,62 %
15.10.2023 05:28 7,8 C 7,2 C 3,9 C 93 % 1019,0 hPa 0,0 l/m 0 min 0 min 0 W/m 3,2 km/h (1 Bft) 95,74 %
15.10.2023 05:30 7,8 C 7,2 C 3,9 C 93 % 1018,9 hPa 0,0 l/m 0 min 0 min 0 W/m 3,2 km/h (1 Bft) 95,74 %
15.10.2023 05:32 7,8 C 7,2 C 3,9 C 93 % 1019,0 hPa 0,0 l/m 0 min 0 min 0 W/m 6,4 km/h (2 Bft) 95,74 %
15.10.2023 05:34 7,8 C 7,2 C 4,4 C 93 % 1019,0 hPa 0,0 l/m 0 min 0 min 0 W/m 6,4 km/h (2 Bft) 95,74 %
15.10.2023 05:36 7,8 C 7,2 C 4,4 C 94 % 1018,9 hPa 0,0 l/m 0 min 0 min 0 W/m 0,0 km/h (0 Bft) 91,30 %
15.10.2023 05:38 7,8 C 7,2 C 3,9 C 94 % 1018,9 hPa 0,2 l/m 0 min 0 min 0 W/m 3,2 km/h (1 Bft) 93,62 %
15.10.2023 05:40 7,8 C 7,2 C 4,4 C 94 % 1018,9 hPa 0,0 l/m 0 min 0 min 0 W/m 3,2 km/h (1 Bft) 97,87 %
15.10.2023 05:42 7,8 C 7,2 C 3,9 C 94 % 1018,8 hPa 0,0 l/m 0 min 2 min 0 W/m 3,2 km/h (1 Bft) 97,87 %
15.10.2023 05:44 7,8 C 7,2 C 3,9 C 94 % 1018,5 hPa 0,0 l/m 0 min 2 min 0 W/m 3,2 km/h (1 Bft) 97,87 %
15.10.2023 05:46 7,8 C 7,2 C 3,9 C 94 % 1018,5 hPa 0,0 l/m 0 min 2 min 0 W/m 3,2 km/h (1 Bft) 97,87 %
15.10.2023 05:48 7,8 C 7,2 C 3,9 C 94 % 1018,5 hPa 0,0 l/m 0 min 0 min 0 W/m 3,2 km/h (1 Bft) 97,83 %
15.10.2023 05:50 7,8 C 7,2 C 3,9 C 94 % 1018,5 hPa 0,0 l/m 0 min 0 min 0 W/m 6,4 km/h (2 Bft) 97,87 %
15.10.2023 05:52 7,8 C 7,2 C 3,9 C 94 % 1018,6 hPa 0,0 l/m 0 min 0 min 0 W/m 9,7 km/h (2 Bft) 97,87 %
15.10.2023 05:54 7,8 C 7,2 C 3,9 C 94 % 1018,6 hPa 0,0 l/m 0 min 0 min 0 W/m 3,2 km/h (1 Bft) 100,00 %
15.10.2023 05:56 7,8 C 7,2 C 3,9 C 94 % 1018,6 hPa 0,0 l/m 0 min 0 min 0 W/m 9,7 km/h (2 Bft) 100,00 %
15.10.2023 05:58 7,8 C 6,7 C 3,9 C 94 % 1018,5 hPa 0,0 l/m 0 min 0 min 0 W/m 3,2 km/h (1 Bft) 100,00 %
15.10.2023 06:00 7,7 C 6,7 C 3,9 C 94 % 1018,5 hPa 0,0 l/m 0 min 0 min 0 W/m 0,0 km/h (0 Bft) 97,87 %
15.10.2023 06:02 7,7 C 6,7 C 3,9 C 94 % 1018,6 hPa 0,0 l/m 0 min 0 min 0 W/m 6,4 km/h (2 Bft) 100,00 %
15.10.2023 06:04 7,7 C 6,7 C 3,9 C 94 % 1018,5 hPa 0,0 l/m 0 min 0 min 0 W/m 0,0 km/h (0 Bft) 100,00 %
15.10.2023 06:08 7,7 C 6,7 C 3,9 C 94 % 1018,6 hPa 0,0 l/m 0 min 0 min 0 W/m 6,4 km/h (2 Bft) 97,83 %
15.10.2023 06:10 7,7 C 6,7 C 3,9 C 94 % 1018,6 hPa 0,0 l/m 0 min 0 min 0 W/m 6,4 km/h (2 Bft) 100,00 %
15.10.2023 06:12 7,7 C 6,7 C 3,9 C 94 % 1018,7 hPa 0,0 l/m 0 min 0 min 0 W/m 0,0 km/h (0 Bft) 100,00 %
15.10.2023 06:16 7,7 C 7,2 C 3,9 C 94 % 1019,1 hPa 0,0 l/m 0 min 0 min 0 W/m 9,7 km/h (2 Bft) 98,94 %
15.10.2023 06:18 7,7 C 7,2 C 3,9 C 94 % 1019,1 hPa 0,0 l/m 0 min 0 min 0 W/m 3,2 km/h (1 Bft) 100,00 %
15.10.2023 06:20 7,7 C 7,2 C 3,9 C 94 % 1019,1 hPa 0,0 l/m 0 min 0 min 0 W/m 0,0 km/h (0 Bft) 100,00 %
15.10.2023 06:22 7,7 C 7,2 C 3,9 C 94 % 1019,1 hPa 0,0 l/m 0 min 0 min 0 W/m 6,4 km/h (2 Bft) 100,00 %
15.10.2023 06:24 7,7 C 7,2 C 3,9 C 94 % 1019,1 hPa 0,0 l/m 0 min 0 min 0 W/m 6,4 km/h (2 Bft) 97,87 %
15.10.2023 06:26 7,7 C 7,2 C 3,9 C 94 % 1019,1 hPa 0,0 l/m 0 min 0 min 0 W/m 9,7 km/h (2 Bft) 95,74 %
15.10.2023 06:28 7,7 C 7,2 C 3,9 C 94 % 1019,2 hPa 0,0 l/m 0 min 0 min 0 W/m 12,9 km/h (3 Bft) 95,74 %
15.10.2023 06:30 7,7 C 7,2 C 3,9 C 94 % 1019,2 hPa 0,0 l/m 0 min 0 min 0 W/m 9,7 km/h (2 Bft) 97,87 %
15.10.2023 06:32 7,7 C 7,2 C 3,9 C 94 % 1019,2 hPa 0,0 l/m 0 min 0 min 0 W/m 12,9 km/h (3 Bft) 97,83 %
15.10.2023 06:34 7,7 C 7,2 C 3,9 C 94 % 1019,2 hPa 0,0 l/m 0 min 0 min 0 W/m 9,7 km/h (2 Bft) 97,96 %
15.10.2023 06:36 7,7 C 6,7 C 3,3 C 94 % 1019,1 hPa 0,0 l/m 0 min 0 min 0 W/m 6,4 km/h (2 Bft) 95,74 %
15.10.2023 06:38 7,6 C 6,7 C 3,3 C 94 % 1019,1 hPa 0,0 l/m 0 min 0 min 0 W/m 12,9 km/h (3 Bft) 95,74 %
15.10.2023 06:40 7,6 C 6,7 C 3,3 C 94 % 1019,1 hPa 0,0 l/m 0 min 0 min 0 W/m 12,9 km/h (3 Bft) 97,87 %
15.10.2023 06:42 7,6 C 6,7 C 3,3 C 94 % 1019,1 hPa 0,0 l/m 0 min 0 min 0 W/m 6,4 km/h (2 Bft) 97,87 %
15.10.2023 06:44 7,6 C 6,7 C 3,3 C 94 % 1019,1 hPa 0,0 l/m 0 min 0 min 0 W/m 6,4 km/h (2 Bft) 95,74 %
15.10.2023 06:46 7,5 C 6,7 C 3,3 C 94 % 1019,1 hPa 0,0 l/m 0 min 0 min 0 W/m 6,4 km/h (2 Bft) 97,87 %
15.10.2023 06:48 7,5 C 6,7 C 3,3 C 94 % 1019,1 hPa 0,0 l/m 0 min 0 min 0 W/m 6,4 km/h (2 Bft) 97,87 %
15.10.2023 06:50 7,4 C 6,7 C 3,3 C 94 % 1019,3 hPa 0,0 l/m 0 min 0 min 0 W/m 9,7 km/h (2 Bft) 93,48 %
15.10.2023 06:52 7,4 C 6,7 C 3,3 C 94 % 1019,4 hPa 0,0 l/m 0 min 0 min 0 W/m 9,7 km/h (2 Bft) 95,74 %
15.10.2023 06:54 7,4 C 6,7 C 3,3 C 94 % 1019,4 hPa 0,4 l/m 0 min 2 min 0 W/m 12,9 km/h (3 Bft) 95,74 %
15.10.2023 06:56 7,3 C 6,7 C 3,3 C 94 % 1019,4 hPa 0,0 l/m 0 min 2 min 0 W/m 6,4 km/h (2 Bft) 95,74 %
15.10.2023 06:58 7,3 C 6,7 C 3,3 C 94 % 1019,3 hPa 0,0 l/m 0 min 0 min 0 W/m 6,4 km/h (2 Bft) 95,74 %
15.10.2023 07:00 7,3 C 6,7 C 2,8 C 94 % 1019,4 hPa 0,0 l/m 0 min 0 min 0 W/m 12,9 km/h (3 Bft) 93,62 %
15.10.2023 07:02 7,2 C 6,1 C 2,8 C 94 % 1019,4 hPa 0,0 l/m 0 min 2 min 0 W/m 9,7 km/h (2 Bft) 95,74 %
15.10.2023 07:04 7,2 C 6,1 C 2,8 C 94 % 1019,4 hPa 0,0 l/m 0 min 2 min 0 W/m 12,9 km/h (3 Bft) 95,24 %
15.10.2023 07:08 7,1 C 6,1 C 2,8 C 94 % 1019,1 hPa 0,0 l/m 0 min 4 min 0 W/m 12,9 km/h (3 Bft) 96,12 %
15.10.2023 07:09 7,1 C 6,7 C 2,8 C 94 % 1019,1 hPa 0,2 l/m 0 min 1 min 0 W/m 6,4 km/h (2 Bft) 91,67 %
15.10.2023 07:12 7,1 C 6,7 C 3,3 C 94 % 1019,1 hPa 0,0 l/m 0 min 3 min 0 W/m 6,4 km/h (2 Bft) 96,55 %
15.10.2023 07:14 7,1 C 6,7 C 3,3 C 94 % 1019,0 hPa 0,0 l/m 0 min 2 min 0 W/m 3,2 km/h (1 Bft) 95,74 %
15.10.2023 07:16 7,1 C 6,7 C 3,3 C 94 % 1019,0 hPa 0,0 l/m 0 min 2 min 0 W/m 6,4 km/h (2 Bft) 93,62 %
15.10.2023 07:18 7,1 C 6,7 C 3,3 C 94 % 1019,0 hPa 0,0 l/m 0 min 0 min 0 W/m 6,4 km/h (2 Bft) 95,74 %
15.10.2023 07:20 7,1 C 6,7 C 2,8 C 94 % 1018,9 hPa 0,0 l/m 0 min 0 min 0 W/m 3,2 km/h (1 Bft) 93,62 %
15.10.2023 07:22 7,1 C 6,7 C 2,8 C 94 % 1018,9 hPa 0,0 l/m 0 min 0 min 0 W/m 3,2 km/h (1 Bft) 95,74 %
15.10.2023 07:25 7,1 C 6,7 C 3,3 C 94 % 1018,9 hPa 0,0 l/m 0 min 0 min 0 W/m 3,2 km/h (1 Bft) 99,12 %
15.10.2023 07:28 7,1 C 6,7 C 3,3 C 94 % 1018,8 hPa 0,0 l/m 0 min 0 min 0 W/m 3,2 km/h (1 Bft) 100,00 %
15.10.2023 07:30 7,1 C 6,7 C 3,3 C 94 % 1018,9 hPa 0,0 l/m 0 min 0 min 0 W/m 3,2 km/h (1 Bft) 95,74 %
15.10.2023 07:32 7,1 C 6,7 C 3,3 C 95 % 1018,9 hPa 0,0 l/m 0 min 0 min 0 W/m 0,0 km/h (0 Bft) 100,00 %
15.10.2023 07:34 7,2 C 6,7 C 3,3 C 95 % 1019,0 hPa 0,0 l/m 0 min 0 min 0 W/m 0,0 km/h (0 Bft) 97,87 %
15.10.2023 07:36 7,2 C 6,7 C 3,3 C 95 % 1018,9 hPa 0,0 l/m 0 min 0 min 0 W/m 0,0 km/h (0 Bft) 100,00 %
15.10.2023 07:38 7,1 C 6,7 C 3,3 C 95 % 1019,0 hPa 0,0 l/m 0 min 0 min 0 W/m 6,4 km/h (2 Bft) 97,96 %
15.10.2023 07:40 7,1 C 6,7 C 3,3 C 95 % 1019,0 hPa 0,0 l/m 0 min 0 min 0 W/m 6,4 km/h (2 Bft) 97,87 %
15.10.2023 07:42 7,1 C 6,7 C 3,3 C 94 % 1019,0 hPa 0,0 l/m 0 min 0 min 0 W/m 12,9 km/h (3 Bft) 97,87 %
15.10.2023 07:44 7,1 C 6,7 C 3,3 C 94 % 1019,1 hPa 0,0 l/m 0 min 0 min 0 W/m 12,9 km/h (3 Bft) 95,65 %
15.10.2023 07:46 7,2 C 6,7 C 3,3 C 95 % 1019,1 hPa 0,0 l/m 0 min 0 min 0 W/m 6,4 km/h (2 Bft) 97,87 %
15.10.2023 07:48 7,1 C 6,7 C 3,3 C 95 % 1019,1 hPa 0,0 l/m 0 min 0 min 0 W/m 6,4 km/h (2 Bft) 93,62 %
15.10.2023 07:50 7,1 C 6,7 C 3,3 C 95 % 1019,1 hPa 0,0 l/m 0 min 2 min 0 W/m 6,4 km/h (2 Bft) 97,87 %
15.10.2023 07:54 7,1 C 6,7 C 3,3 C 95 % 1019,2 hPa 0,0 l/m 0 min 4 min 0 W/m 6,4 km/h (2 Bft) 96,88 %
15.10.2023 07:56 7,1 C 6,7 C 3,3 C 95 % 1019,2 hPa 0,0 l/m 0 min 0 min 0 W/m 6,4 km/h (2 Bft) 97,67 %
15.10.2023 07:58 7,1 C 6,7 C 3,3 C 95 % 1019,2 hPa 0,0 l/m 0 min 0 min 0 W/m 6,4 km/h (2 Bft) 97,87 %
15.10.2023 08:00 7,1 C 6,7 C 3,3 C 95 % 1019,1 hPa 0,0 l/m 0 min 0 min 0 W/m 6,4 km/h (2 Bft) 96,15 %
15.10.2023 08:02 7,2 C 6,7 C 3,3 C 95 % 1019,1 hPa 0,0 l/m 0 min 0 min 0 W/m 6,4 km/h (2 Bft) 97,87 %
15.10.2023 08:04 7,2 C 6,7 C 3,3 C 95 % 1019,2 hPa 0,0 l/m 0 min 0 min 0 W/m 6,4 km/h (2 Bft) 97,73 %
15.10.2023 08:08 7,2 C 6,7 C 3,3 C 95 % 1019,0 hPa 0,0 l/m 0 min 0 min 0 W/m 6,4 km/h (2 Bft) 96,04 %
15.10.2023 08:09 7,2 C 6,7 C 3,3 C 95 % 1019,0 hPa 0,0 l/m 0 min 0 min 0 W/m 3,2 km/h (1 Bft) 95,65 %
15.10.2023 08:12 7,2 C 6,7 C 3,3 C 95 % 1019,1 hPa 0,0 l/m 0 min 0 min 0 W/m 6,4 km/h (2 Bft) 96,61 %
15.10.2023 08:14 7,2 C 6,7 C 3,3 C 95 % 1019,1 hPa 0,0 l/m 0 min 0 min 3 W/m 6,4 km/h (2 Bft) 97,87 %
15.10.2023 08:16 7,2 C 6,7 C 3,3 C 95 % 1019,1 hPa 0,0 l/m 0 min 0 min 6 W/m 9,7 km/h (2 Bft) 97,83 %
15.10.2023 08:18 7,2 C 6,7 C 3,3 C 95 % 1019,1 hPa 0,0 l/m 0 min 0 min 8 W/m 6,4 km/h (2 Bft) 97,87 %
15.10.2023 08:20 7,2 C 6,7 C 3,3 C 95 % 1019,1 hPa 0,0 l/m 0 min 0 min 11 W/m 6,4 km/h (2 Bft) 98,00 %
15.10.2023 08:22 7,2 C 6,7 C 3,3 C 95 % 1019,1 hPa 0,0 l/m 0 min 0 min 11 W/m 6,4 km/h (2 Bft) 100,00 %
15.10.2023 08:24 7,2 C 6,7 C 3,3 C 95 % 1019,1 hPa 0,0 l/m 0 min 0 min 12 W/m 6,4 km/h (2 Bft) 100,00 %
15.10.2023 08:26 7,2 C 6,7 C 3,3 C 95 % 1019,1 hPa 0,0 l/m 0 min 0 min 11 W/m 6,4 km/h (2 Bft) 97,87 %
15.10.2023 08:28 7,2 C 6,7 C 3,3 C 95 % 1019,2 hPa 0,0 l/m 0 min 0 min 10 W/m 3,2 km/h (1 Bft) 100,00 %
15.10.2023 08:30 7,2 C 6,7 C 3,3 C 95 % 1019,2 hPa 0,0 l/m 0 min 0 min 9 W/m 3,2 km/h (1 Bft) 100,00 %
15.10.2023 08:32 7,2 C 6,7 C 3,3 C 95 % 1019,2 hPa 0,0 l/m 0 min 0 min 9 W/m 6,4 km/h (2 Bft) 97,87 %
15.10.2023 08:34 7,2 C 6,7 C 3,3 C 95 % 1019,2 hPa 0,0 l/m 0 min 0 min 9 W/m 3,2 km/h (1 Bft) 97,87 %
15.10.2023 08:36 7,2 C 6,7 C 3,3 C 95 % 1019,2 hPa 0,0 l/m 0 min 0 min 9 W/m 3,2 km/h (1 Bft) 93,62 %
15.10.2023 08:38 7,2 C 6,7 C 3,9 C 95 % 1019,3 hPa 0,0 l/m 0 min 0 min 11 W/m 3,2 km/h (1 Bft) 97,87 %
15.10.2023 08:40 7,3 C 6,7 C 3,3 C 95 % 1019,3 hPa 0,0 l/m 0 min 0 min 10 W/m 9,7 km/h (2 Bft) 97,87 %
15.10.2023 08:42 7,3 C 6,7 C 3,3 C 95 % 1019,4 hPa 0,0 l/m 0 min 0 min 10 W/m 9,7 km/h (2 Bft) 97,87 %
15.10.2023 08:44 7,3 C 6,7 C 3,3 C 95 % 1019,4 hPa 0,0 l/m 0 min 0 min 11 W/m 6,4 km/h (2 Bft) 97,87 %
15.10.2023 08:46 7,3 C 6,7 C 3,9 C 95 % 1019,4 hPa 0,0 l/m 0 min 0 min 11 W/m 6,4 km/h (2 Bft) 97,83 %
15.10.2023 08:48 7,3 C 6,7 C 3,3 C 95 % 1019,4 hPa 0,0 l/m 0 min 0 min 12 W/m 3,2 km/h (1 Bft) 97,87 %
15.10.2023 08:50 7,3 C 6,7 C 3,3 C 95 % 1019,4 hPa 0,0 l/m 0 min 0 min 15 W/m 6,4 km/h (2 Bft) 97,87 %
15.10.2023 08:52 7,3 C 6,7 C 3,3 C 95 % 1019,4 hPa 0,0 l/m 0 min 0 min 19 W/m 12,9 km/h (3 Bft) 97,87 %
15.10.2023 08:54 7,3 C 6,7 C 3,3 C 95 % 1019,4 hPa 0,0 l/m 0 min 0 min 28 W/m 6,4 km/h (2 Bft) 97,92 %
15.10.2023 08:56 7,3 C 6,7 C 3,3 C 94 % 1019,5 hPa 0,0 l/m 0 min 0 min 33 W/m 6,4 km/h (2 Bft) 97,87 %
15.10.2023 08:58 7,3 C 6,7 C 3,3 C 94 % 1019,5 hPa 0,0 l/m 0 min 0 min 33 W/m 3,2 km/h (1 Bft) 100,00 %
15.10.2023 09:00 7,3 C 6,7 C 3,3 C 94 % 1019,6 hPa 0,0 l/m 0 min 0 min 38 W/m 3,2 km/h (1 Bft) 96,00 %
15.10.2023 09:02 7,3 C 7,2 C 3,9 C 94 % 1019,7 hPa 0,0 l/m 0 min 0 min 44 W/m 9,7 km/h (2 Bft) 100,00 %
15.10.2023 09:04 7,3 C 7,2 C 3,9 C 94 % 1019,7 hPa 0,0 l/m 0 min 0 min 52 W/m 6,4 km/h (2 Bft) 100,00 %
15.10.2023 09:10 7,3 C 7,2 C 4,4 C 94 % 1019,8 hPa 0,0 l/m 0 min 0 min 78 W/m 9,7 km/h (2 Bft) 99,28 %
15.10.2023 09:12 7,3 C 7,2 C 4,4 C 94 % 1019,8 hPa 0,0 l/m 2 min 0 min 102 W/m 9,7 km/h (2 Bft) 97,87 %
15.10.2023 09:14 7,3 C 7,2 C 4,4 C 94 % 1019,8 hPa 0,0 l/m 2 min 0 min 99 W/m 12,9 km/h (3 Bft) 100,00 %
15.10.2023 09:16 7,4 C 7,8 C 4,4 C 94 % 1019,9 hPa 0,0 l/m 0 min 0 min 82 W/m 6,4 km/h (2 Bft) 100,00 %
15.10.2023 09:18 7,4 C 7,2 C 4,4 C 94 % 1019,9 hPa 0,0 l/m 0 min 0 min 61 W/m 12,9 km/h (3 Bft) 95,65 %
15.10.2023 09:20 7,4 C 7,2 C 4,4 C 94 % 1020,0 hPa 0,0 l/m 0 min 0 min 50 W/m 9,7 km/h (2 Bft) 100,00 %
15.10.2023 09:22 7,5 C 7,2 C 4,4 C 94 % 1020,0 hPa 0,0 l/m 0 min 0 min 45 W/m 12,9 km/h (3 Bft) 100,00 %
15.10.2023 09:24 7,5 C 7,2 C 4,4 C 94 % 1020,1 hPa 0,0 l/m 0 min 0 min 41 W/m 6,4 km/h (2 Bft) 97,87 %
15.10.2023 09:26 7,5 C 7,2 C 4,4 C 94 % 1020,1 hPa 0,0 l/m 0 min 0 min 35 W/m 12,9 km/h (3 Bft) 97,87 %
15.10.2023 09:28 7,5 C 7,2 C 4,4 C 94 % 1020,3 hPa 0,0 l/m 0 min 0 min 27 W/m 16,1 km/h (3 Bft) 100,00 %
15.10.2023 09:30 7,5 C 7,2 C 4,4 C 93 % 1020,2 hPa 0,0 l/m 0 min 0 min 29 W/m 6,4 km/h (2 Bft) 100,00 %
15.10.2023 09:32 7,6 C 7,2 C 4,4 C 93 % 1020,3 hPa 0,0 l/m 0 min 0 min 36 W/m 6,4 km/h (2 Bft) 100,00 %
15.10.2023 09:34 7,6 C 7,2 C 4,4 C 93 % 1020,3 hPa 0,0 l/m 0 min 0 min 44 W/m 6,4 km/h (2 Bft) 100,00 %
15.10.2023 09:36 7,6 C 7,2 C 4,4 C 93 % 1020,3 hPa 0,0 l/m 0 min 0 min 51 W/m 16,1 km/h (3 Bft) 100,00 %
15.10.2023 09:38 7,6 C 7,2 C 4,4 C 93 % 1020,3 hPa 0,0 l/m 0 min 0 min 53 W/m 22,5 km/h (4 Bft) 100,00 %
15.10.2023 09:40 7,6 C 7,2 C 4,4 C 93 % 1020,3 hPa 0,0 l/m 0 min 0 min 63 W/m 9,7 km/h (2 Bft) 100,00 %
15.10.2023 09:42 7,6 C 7,2 C 4,4 C 93 % 1020,3 hPa 0,0 l/m 0 min 0 min 75 W/m 9,7 km/h (2 Bft) 100,00 %
15.10.2023 09:44 7,6 C 7,2 C 4,4 C 93 % 1020,3 hPa 0,0 l/m 0 min 0 min 77 W/m 9,7 km/h (2 Bft) 97,87 %
15.10.2023 09:46 7,6 C 7,2 C 4,4 C 93 % 1020,3 hPa 0,0 l/m 0 min 0 min 78 W/m 6,4 km/h (2 Bft) 95,92 %
15.10.2023 09:48 7,6 C 7,8 C 4,4 C 93 % 1020,3 hPa 0,0 l/m 0 min 2 min 83 W/m 12,9 km/h (3 Bft) 97,87 %
15.10.2023 09:50 7,7 C 7,8 C 4,4 C 93 % 1020,3 hPa 0,0 l/m 0 min 0 min 83 W/m 12,9 km/h (3 Bft) 100,00 %
15.10.2023 09:52 7,7 C 7,8 C 4,4 C 92 % 1020,3 hPa 0,0 l/m 0 min 0 min 85 W/m 12,9 km/h (3 Bft) 97,87 %
15.10.2023 09:54 7,7 C 7,8 C 4,4 C 92 % 1020,3 hPa 0,0 l/m 0 min 0 min 97 W/m 9,7 km/h (2 Bft) 100,00 %
15.10.2023 09:56 7,7 C 7,8 C 4,4 C 92 % 1020,4 hPa 0,0 l/m 0 min 0 min 107 W/m 9,7 km/h (2 Bft) 100,00 %
15.10.2023 09:58 7,8 C 7,8 C 4,4 C 92 % 1020,4 hPa 0,0 l/m 0 min 0 min 113 W/m 6,4 km/h (2 Bft) 95,00 %
15.10.2023 10:00 7,8 C 7,8 C 4,4 C 92 % 1020,4 hPa 0,0 l/m 0 min 0 min 103 W/m 6,4 km/h (2 Bft) 95,74 %
15.10.2023 10:02 7,8 C 7,8 C 4,4 C 92 % 1020,5 hPa 0,0 l/m 0 min 0 min 88 W/m 3,2 km/h (1 Bft) 95,74 %
15.10.2023 10:04 7,8 C 7,8 C 4,4 C 92 % 1020,5 hPa 0,0 l/m 0 min 0 min 76 W/m 9,7 km/h (2 Bft) 96,15 %
15.10.2023 10:08 7,9 C 7,8 C 4,4 C 92 % 1020,5 hPa 0,0 l/m 0 min 0 min 65 W/m 12,9 km/h (3 Bft) 95,12 %
15.10.2023 10:10 7,9 C 7,8 C 4,4 C 92 % 1020,5 hPa 0,0 l/m 0 min 0 min 70 W/m 9,7 km/h (2 Bft) 95,74 %
15.10.2023 10:12 7,8 C 7,8 C 4,4 C 91 % 1020,5 hPa 0,0 l/m 0 min 0 min 88 W/m 12,9 km/h (3 Bft) 93,48 %
15.10.2023 10:14 7,9 C 7,8 C 4,4 C 91 % 1020,4 hPa 0,0 l/m 0 min 0 min 109 W/m 6,4 km/h (2 Bft) 93,62 %
15.10.2023 10:16 7,9 C 7,8 C 5,0 C 91 % 1020,5 hPa 0,0 l/m 0 min 0 min 116 W/m 3,2 km/h (1 Bft) 91,49 %
15.10.2023 10:18 7,9 C 7,8 C 5,0 C 91 % 1020,5 hPa 0,0 l/m 0 min 0 min 118 W/m 3,2 km/h (1 Bft) 92,00 %
15.10.2023 10:20 8,0 C 8,3 C 5,0 C 91 % 1020,6 hPa 0,0 l/m 0 min 0 min 116 W/m 12,9 km/h (3 Bft) 93,62 %
15.10.2023 10:22 8,1 C 7,8 C 5,0 C 91 % 1020,6 hPa 0,0 l/m 0 min 0 min 105 W/m 12,9 km/h (3 Bft) 93,62 %
15.10.2023 10:24 8,1 C 7,8 C 5,0 C 91 % 1020,6 hPa 0,0 l/m 0 min 0 min 96 W/m 12,9 km/h (3 Bft) 93,48 %
15.10.2023 10:26 8,1 C 7,8 C 5,0 C 91 % 1020,6 hPa 0,0 l/m 0 min 0 min 94 W/m 6,4 km/h (2 Bft) 91,49 %
15.10.2023 10:28 8,1 C 7,8 C 5,0 C 91 % 1020,6 hPa 0,0 l/m 0 min 0 min 93 W/m 6,4 km/h (2 Bft) 95,74 %
15.10.2023 10:30 8,1 C 7,8 C 5,0 C 91 % 1020,7 hPa 0,0 l/m 0 min 0 min 91 W/m 6,4 km/h (2 Bft) 91,49 %
15.10.2023 10:32 8,1 C 8,3 C 5,0 C 91 % 1020,7 hPa 0,0 l/m 0 min 0 min 98 W/m 9,7 km/h (2 Bft) 89,36 %
15.10.2023 10:34 8,2 C 8,3 C 5,0 C 91 % 1020,7 hPa 0,0 l/m 0 min 0 min 110 W/m 16,1 km/h (3 Bft) 93,62 %
15.10.2023 10:36 8,2 C 8,3 C 5,0 C 91 % 1020,7 hPa 0,0 l/m 0 min 0 min 117 W/m 12,9 km/h (3 Bft) 91,49 %
15.10.2023 10:38 8,2 C 8,3 C 5,0 C 91 % 1020,7 hPa 0,0 l/m 0 min 0 min 127 W/m 19,3 km/h (3 Bft) 93,62 %
15.10.2023 10:40 8,2 C 8,3 C 5,0 C 91 % 1020,8 hPa 0,0 l/m 0 min 0 min 135 W/m 16,1 km/h (3 Bft) 95,65 %
15.10.2023 10:42 8,2 C 8,3 C 5,0 C 91 % 1020,8 hPa 0,0 l/m 0 min 0 min 151 W/m 9,7 km/h (2 Bft) 95,74 %
15.10.2023 10:44 8,3 C 8,3 C 5,0 C 91 % 1020,8 hPa 0,0 l/m 0 min 0 min 156 W/m 9,7 km/h (2 Bft) 95,74 %
15.10.2023 10:46 8,3 C 8,3 C 5,0 C 91 % 1020,9 hPa 0,0 l/m 0 min 0 min 151 W/m 6,4 km/h (2 Bft) 97,87 %
15.10.2023 10:48 8,3 C 8,3 C 5,0 C 91 % 1020,9 hPa 0,0 l/m 0 min 0 min 121 W/m 6,4 km/h (2 Bft) 97,87 %
15.10.2023 10:50 8,3 C 8,3 C 5,0 C 91 % 1020,9 hPa 0,0 l/m 0 min 0 min 112 W/m 12,9 km/h (3 Bft) 93,62 %
15.10.2023 10:52 8,4 C 8,3 C 5,0 C 90 % 1021,0 hPa 0,0 l/m 0 min 0 min 131 W/m 9,7 km/h (2 Bft) 95,74 %
15.10.2023 10:54 8,4 C 8,3 C 5,0 C 90 % 1021,0 hPa 0,0 l/m 0 min 0 min 143 W/m 12,9 km/h (3 Bft) 98,11 %
15.10.2023 10:56 8,4 C 8,3 C 5,0 C 90 % 1021,0 hPa 0,0 l/m 0 min 0 min 131 W/m 12,9 km/h (3 Bft) 97,87 %
15.10.2023 10:58 8,4 C 8,3 C 5,0 C 90 % 1021,0 hPa 0,0 l/m 0 min 0 min 110 W/m 12,9 km/h (3 Bft) 100,00 %
15.10.2023 11:00 8,5 C 8,3 C 5,0 C 91 % 1020,9 hPa 0,0 l/m 0 min 2 min 106 W/m 9,7 km/h (2 Bft) 100,00 %
15.10.2023 11:02 8,5 C 8,3 C 5,0 C 90 % 1021,0 hPa 0,0 l/m 0 min 2 min 119 W/m 9,7 km/h (2 Bft) 100,00 %
15.10.2023 11:04 8,6 C 8,3 C 5,0 C 90 % 1021,1 hPa 0,0 l/m 0 min 2 min 118 W/m 12,9 km/h (3 Bft) 95,83 %
15.10.2023 11:08 8,6 C 8,3 C 5,0 C 90 % 1021,2 hPa 0,0 l/m 0 min 0 min 136 W/m 16,1 km/h (3 Bft) 100,00 %
15.10.2023 11:10 8,6 C 8,3 C 5,0 C 90 % 1021,1 hPa 0,0 l/m 0 min 0 min 187 W/m 16,1 km/h (3 Bft) 100,00 %
15.10.2023 11:12 8,6 C 8,9 C 5,6 C 90 % 1021,2 hPa 0,0 l/m 0 min 0 min 199 W/m 12,9 km/h (3 Bft) 100,00 %
15.10.2023 11:14 8,6 C 8,9 C 5,6 C 90 % 1021,2 hPa 0,0 l/m 0 min 0 min 202 W/m 6,4 km/h (2 Bft) 95,74 %
15.10.2023 11:16 8,7 C 8,9 C 5,6 C 90 % 1021,3 hPa 0,0 l/m 0 min 0 min 191 W/m 6,4 km/h (2 Bft) 97,83 %
15.10.2023 11:18 8,7 C 9,4 C 5,6 C 90 % 1021,3 hPa 0,0 l/m 0 min 0 min 184 W/m 16,1 km/h (3 Bft) 100,00 %
15.10.2023 11:20 8,7 C 8,9 C 5,6 C 90 % 1021,3 hPa 0,0 l/m 0 min 0 min 161 W/m 16,1 km/h (3 Bft) 100,00 %
15.10.2023 11:22 8,7 C 8,9 C 5,6 C 90 % 1021,4 hPa 0,0 l/m 0 min 0 min 157 W/m 12,9 km/h (3 Bft) 100,00 %
15.10.2023 11:24 8,8 C 8,9 C 5,6 C 90 % 1021,4 hPa 0,0 l/m 0 min 0 min 167 W/m 16,1 km/h (3 Bft) 100,00 %
15.10.2023 11:26 8,8 C 8,9 C 5,6 C 90 % 1021,5 hPa 0,0 l/m 0 min 0 min 154 W/m 9,7 km/h (2 Bft) 97,87 %
15.10.2023 11:28 8,8 C 8,9 C 5,6 C 89 % 1021,5 hPa 0,0 l/m 0 min 0 min 146 W/m 9,7 km/h (2 Bft) 100,00 %
15.10.2023 11:30 8,8 C 8,9 C 5,6 C 89 % 1021,5 hPa 0,0 l/m 0 min 0 min 159 W/m 9,7 km/h (2 Bft) 100,00 %
15.10.2023 11:32 8,8 C 9,4 C 5,6 C 89 % 1021,5 hPa 0,0 l/m 0 min 0 min 188 W/m 12,9 km/h (3 Bft) 100,00 %
15.10.2023 11:34 8,8 C 9,4 C 5,6 C 89 % 1021,5 hPa 0,0 l/m 0 min 0 min 203 W/m 12,9 km/h (3 Bft) 97,87 %
15.10.2023 11:36 8,9 C 9,4 C 5,6 C 89 % 1021,6 hPa 0,0 l/m 0 min 0 min 217 W/m 12,9 km/h (3 Bft) 100,00 %
15.10.2023 11:38 9,0 C 9,4 C 5,6 C 89 % 1021,7 hPa 0,0 l/m 0 min 0 min 219 W/m 16,1 km/h (3 Bft) 100,00 %
15.10.2023 11:40 9,0 C 9,4 C 6,1 C 88 % 1021,7 hPa 0,0 l/m 0 min 0 min 189 W/m 12,9 km/h (3 Bft) 100,00 %
15.10.2023 11:42 9,1 C 9,4 C 6,1 C 88 % 1021,8 hPa 0,0 l/m 0 min 0 min 198 W/m 25,7 km/h (4 Bft) 100,00 %
15.10.2023 11:44 9,1 C 9,4 C 6,1 C 88 % 1021,8 hPa 0,0 l/m 0 min 0 min 202 W/m 16,1 km/h (3 Bft) 100,00 %
15.10.2023 11:46 9,1 C 9,4 C 6,1 C 88 % 1021,8 hPa 0,0 l/m 2 min 0 min 234 W/m 19,3 km/h (3 Bft) 100,00 %
15.10.2023 11:48 9,1 C 9,4 C 6,1 C 88 % 1021,8 hPa 0,0 l/m 2 min 0 min 237 W/m 9,7 km/h (2 Bft) 97,87 %
15.10.2023 11:50 9,1 C 9,4 C 6,1 C 88 % 1021,8 hPa 0,0 l/m 0 min 0 min 212 W/m 12,9 km/h (3 Bft) 100,00 %
15.10.2023 11:52 9,2 C 9,4 C 6,1 C 88 % 1021,8 hPa 0,0 l/m 0 min 0 min 197 W/m 12,9 km/h (3 Bft) 97,83 %
15.10.2023 11:54 9,2 C 9,4 C 6,1 C 87 % 1021,9 hPa 0,0 l/m 0 min 0 min 187 W/m 9,7 km/h (2 Bft) 98,15 %
15.10.2023 11:56 9,3 C 9,4 C 6,1 C 87 % 1021,9 hPa 0,0 l/m 0 min 0 min 180 W/m 12,9 km/h (3 Bft) 100,00 %
15.10.2023 11:58 9,3 C 9,4 C 6,1 C 87 % 1021,9 hPa 0,0 l/m 0 min 0 min 161 W/m 22,5 km/h (4 Bft) 100,00 %
15.10.2023 12:00 9,3 C 9,4 C 5,6 C 87 % 1022,0 hPa 0,0 l/m 0 min 0 min 146 W/m 19,3 km/h (3 Bft) 97,87 %
15.10.2023 12:02 9,2 C 9,4 C 5,6 C 87 % 1021,9 hPa 0,0 l/m 0 min 2 min 149 W/m 12,9 km/h (3 Bft) 97,87 %
15.10.2023 12:04 9,2 C 9,4 C 5,6 C 87 % 1022,0 hPa 0,0 l/m 0 min 0 min 176 W/m 16,1 km/h (3 Bft) 97,78 %
15.10.2023 12:08 9,3 C 9,4 C 5,6 C 87 % 1022,0 hPa 0,0 l/m 0 min 4 min 169 W/m 16,1 km/h (3 Bft) 97,78 %
15.10.2023 12:10 9,3 C 8,9 C 5,6 C 87 % 1022,0 hPa 0,0 l/m 0 min 2 min 129 W/m 6,4 km/h (2 Bft) 97,87 %
15.10.2023 12:12 9,2 C 8,9 C 5,6 C 88 % 1022,0 hPa 0,0 l/m 0 min 2 min 125 W/m 16,1 km/h (3 Bft) 95,65 %
15.10.2023 12:16 9,1 C 8,9 C 5,0 C 87 % 1022,1 hPa 0,0 l/m 0 min 4 min 128 W/m 16,1 km/h (3 Bft) 97,87 %
15.10.2023 12:18 9,1 C 8,9 C 5,0 C 88 % 1022,1 hPa 0,0 l/m 0 min 2 min 147 W/m 16,1 km/h (3 Bft) 97,87 %
15.10.2023 12:20 9,1 C 8,9 C 5,0 C 87 % 1022,1 hPa 0,0 l/m 0 min 2 min 134 W/m 6,4 km/h (2 Bft) 95,74 %
15.10.2023 12:22 9,1 C 8,9 C 5,0 C 88 % 1022,0 hPa 0,0 l/m 0 min 2 min 111 W/m 9,7 km/h (2 Bft) 97,87 %
15.10.2023 12:24 9,1 C 8,9 C 5,0 C 88 % 1022,0 hPa 0,0 l/m 0 min 0 min 105 W/m 9,7 km/h (2 Bft) 95,74 %
15.10.2023 12:26 9,1 C 8,9 C 5,0 C 88 % 1022,0 hPa 0,0 l/m 0 min 0 min 84 W/m 16,1 km/h (3 Bft) 97,83 %
15.10.2023 12:28 9,1 C 8,9 C 5,0 C 88 % 1022,1 hPa 0,0 l/m 0 min 0 min 73 W/m 16,1 km/h (3 Bft) 93,62 %
15.10.2023 12:30 9,1 C 9,4 C 5,0 C 88 % 1022,1 hPa 0,0 l/m 0 min 0 min 73 W/m 16,1 km/h (3 Bft) 95,74 %
15.10.2023 12:32 9,2 C 9,4 C 5,6 C 88 % 1022,1 hPa 0,0 l/m 0 min 0 min 81 W/m 12,9 km/h (3 Bft) 93,62 %
15.10.2023 12:34 9,2 C 9,4 C 5,6 C 89 % 1022,2 hPa 0,0 l/m 0 min 0 min 96 W/m 9,7 km/h (2 Bft) 93,62 %
15.10.2023 12:36 9,3 C 9,4 C 5,6 C 89 % 1022,2 hPa 0,0 l/m 0 min 0 min 85 W/m 12,9 km/h (3 Bft) 100,00 %
15.10.2023 12:38 9,3 C 9,4 C 5,6 C 88 % 1022,2 hPa 0,0 l/m 0 min 0 min 117 W/m 12,9 km/h (3 Bft) 100,00 %
15.10.2023 12:40 9,3 C 9,4 C 6,1 C 88 % 1022,2 hPa 0,0 l/m 0 min 0 min 156 W/m 9,7 km/h (2 Bft) 97,83 %
15.10.2023 12:42 9,3 C 9,4 C 5,6 C 88 % 1022,3 hPa 0,0 l/m 0 min 0 min 151 W/m 16,1 km/h (3 Bft) 100,00 %
15.10.2023 12:44 9,3 C 10,0 C 6,1 C 87 % 1022,2 hPa 0,0 l/m 0 min 0 min 199 W/m 12,9 km/h (3 Bft) 97,87 %
15.10.2023 12:46 9,4 C 10,0 C 6,1 C 87 % 1022,2 hPa 0,0 l/m 0 min 0 min 234 W/m 16,1 km/h (3 Bft) 100,00 %
15.10.2023 12:48 9,4 C 10,6 C 6,1 C 87 % 1022,2 hPa 0,0 l/m 0 min 0 min 238 W/m 6,4 km/h (2 Bft) 100,00 %
15.10.2023 12:50 9,5 C 10,6 C 6,7 C 87 % 1022,2 hPa 0,0 l/m 0 min 0 min 230 W/m 6,4 km/h (2 Bft) 93,62 %
15.10.2023 12:52 9,6 C 10,6 C 6,7 C 87 % 1022,1 hPa 0,0 l/m 0 min 0 min 216 W/m 6,4 km/h (2 Bft) 97,87 %
15.10.2023 12:54 9,6 C 10,6 C 6,7 C 87 % 1022,2 hPa 0,0 l/m 0 min 0 min 171 W/m 16,1 km/h (3 Bft) 97,87 %
15.10.2023 12:56 9,6 C 10,0 C 6,1 C 86 % 1022,2 hPa 0,0 l/m 0 min 0 min 134 W/m 12,9 km/h (3 Bft) 97,83 %
15.10.2023 12:58 9,6 C 10,0 C 6,1 C 85 % 1022,2 hPa 0,0 l/m 0 min 0 min 127 W/m 22,5 km/h (4 Bft) 97,87 %
15.10.2023 13:00 9,6 C 9,4 C 6,1 C 85 % 1022,1 hPa 0,0 l/m 0 min 0 min 116 W/m 9,7 km/h (2 Bft) 97,87 %
15.10.2023 13:02 9,6 C 9,4 C 6,1 C 84 % 1022,2 hPa 0,0 l/m 0 min 0 min 85 W/m 6,4 km/h (2 Bft) 93,62 %
15.10.2023 13:04 9,6 C 9,4 C 6,1 C 84 % 1022,2 hPa 0,0 l/m 0 min 0 min 63 W/m 6,4 km/h (2 Bft) 95,24 %
15.10.2023 13:08 9,6 C 9,4 C 6,1 C 84 % 1022,2 hPa 0,0 l/m 0 min 4 min 85 W/m 6,4 km/h (2 Bft) 94,68 %
15.10.2023 13:09 9,6 C 9,4 C 6,1 C 84 % 1022,3 hPa 0,0 l/m 0 min 0 min 94 W/m 6,4 km/h (2 Bft) 95,65 %
15.10.2023 13:10 9,6 C 9,4 C 6,1 C 84 % 1022,3 hPa 0,0 l/m 0 min 0 min 87 W/m 6,4 km/h (2 Bft) 98,25 %
15.10.2023 13:14 9,5 C 9,4 C 5,6 C 84 % 1022,3 hPa 0,0 l/m 0 min 0 min 85 W/m 6,4 km/h (2 Bft) 95,65 %
15.10.2023 13:16 9,5 C 8,9 C 5,6 C 84 % 1022,3 hPa 0,0 l/m 0 min 0 min 85 W/m 9,7 km/h (2 Bft) 95,74 %
15.10.2023 13:18 9,5 C 8,9 C 5,6 C 84 % 1022,4 hPa 0,0 l/m 0 min 0 min 85 W/m 6,4 km/h (2 Bft) 95,74 %
15.10.2023 13:20 9,5 C 9,4 C 5,6 C 85 % 1022,4 hPa 0,0 l/m 0 min 0 min 104 W/m 16,1 km/h (3 Bft) 95,74 %
15.10.2023 13:22 9,4 C 9,4 C 5,6 C 85 % 1022,3 hPa 0,0 l/m 0 min 0 min 114 W/m 3,2 km/h (1 Bft) 93,62 %
15.10.2023 13:24 9,4 C 9,4 C 5,6 C 85 % 1022,3 hPa 0,0 l/m 0 min 0 min 128 W/m 3,2 km/h (1 Bft) 95,74 %
15.10.2023 13:26 9,4 C 9,4 C 5,6 C 86 % 1022,3 hPa 0,0 l/m 0 min 0 min 139 W/m 6,4 km/h (2 Bft) 93,62 %
15.10.2023 13:28 9,5 C 9,4 C 6,1 C 86 % 1022,3 hPa 0,0 l/m 0 min 0 min 124 W/m 6,4 km/h (2 Bft) 95,74 %
15.10.2023 13:30 9,5 C 10,0 C 6,1 C 86 % 1022,3 hPa 0,0 l/m 0 min 0 min 156 W/m 6,4 km/h (2 Bft) 95,74 %
15.10.2023 13:32 9,6 C 10,0 C 6,1 C 86 % 1022,3 hPa 0,0 l/m 0 min 0 min 175 W/m 9,7 km/h (2 Bft) 95,65 %
15.10.2023 13:34 9,6 C 10,0 C 6,1 C 86 % 1022,4 hPa 0,0 l/m 0 min 0 min 147 W/m 12,9 km/h (3 Bft) 95,74 %
15.10.2023 13:36 9,6 C 10,0 C 6,1 C 86 % 1022,3 hPa 0,0 l/m 0 min 0 min 143 W/m 16,1 km/h (3 Bft) 93,62 %
15.10.2023 13:38 9,7 C 10,0 C 6,1 C 85 % 1022,4 hPa 0,0 l/m 0 min 0 min 182 W/m 12,9 km/h (3 Bft) 95,74 %
15.10.2023 13:40 9,7 C 10,0 C 6,1 C 85 % 1022,3 hPa 0,0 l/m 0 min 0 min 204 W/m 12,9 km/h (3 Bft) 95,74 %
15.10.2023 13:42 9,7 C 10,0 C 6,1 C 85 % 1022,3 hPa 0,0 l/m 0 min 0 min 201 W/m 3,2 km/h (1 Bft) 93,62 %
15.10.2023 13:44 9,8 C 10,0 C 6,7 C 85 % 1022,4 hPa 0,0 l/m 0 min 0 min 190 W/m 6,4 km/h (2 Bft) 95,74 %
15.10.2023 13:46 9,8 C 10,6 C 6,7 C 85 % 1022,3 hPa 0,0 l/m 0 min 0 min 185 W/m 9,7 km/h (2 Bft) 95,74 %
15.10.2023 13:48 9,8 C 10,6 C 6,1 C 84 % 1022,3 hPa 0,0 l/m 0 min 0 min 151 W/m 9,7 km/h (2 Bft) 100,00 %
15.10.2023 13:50 9,9 C 10,0 C 6,1 C 84 % 1022,3 hPa 0,0 l/m 0 min 0 min 133 W/m 16,1 km/h (3 Bft) 100,00 %
15.10.2023 13:52 9,9 C 10,0 C 6,1 C 84 % 1022,3 hPa 0,0 l/m 0 min 0 min 113 W/m 9,7 km/h (2 Bft) 100,00 %
15.10.2023 13:54 9,9 C 10,0 C 6,1 C 84 % 1022,3 hPa 0,0 l/m 0 min 0 min 113 W/m 12,9 km/h (3 Bft) 100,00 %
15.10.2023 13:56 9,9 C 10,0 C 6,1 C 83 % 1022,3 hPa 0,0 l/m 0 min 0 min 223 W/m 12,9 km/h (3 Bft) 97,87 %
15.10.2023 13:58 9,9 C 10,0 C 6,1 C 83 % 1022,4 hPa 0,0 l/m 2 min 0 min 270 W/m 9,7 km/h (2 Bft) 100,00 %
15.10.2023 14:00 10,0 C 10,6 C 6,7 C 83 % 1022,4 hPa 0,0 l/m 0 min 0 min 219 W/m 16,1 km/h (3 Bft) 97,87 %
15.10.2023 14:02 10,1 C 10,6 C 6,7 C 83 % 1022,4 hPa 0,0 l/m 0 min 0 min 188 W/m 12,9 km/h (3 Bft) 97,87 %
15.10.2023 14:04 10,2 C 10,6 C 6,7 C 83 % 1022,4 hPa 0,0 l/m 0 min 0 min 176 W/m 9,7 km/h (2 Bft) 97,83 %
15.10.2023 14:10 10,3 C 10,0 C 6,1 C 81 % 1022,4 hPa 0,0 l/m 0 min 0 min 72 W/m 12,9 km/h (3 Bft) 97,30 %
15.10.2023 14:12 10,3 C 10,0 C 6,1 C 81 % 1022,3 hPa 0,0 l/m 0 min 0 min 77 W/m 16,1 km/h (3 Bft) 97,87 %
15.10.2023 14:14 10,3 C 10,0 C 6,1 C 81 % 1022,3 hPa 0,0 l/m 0 min 0 min 94 W/m 9,7 km/h (2 Bft) 97,87 %
15.10.2023 14:16 10,3 C 10,6 C 6,1 C 81 % 1022,2 hPa 0,0 l/m 2 min 0 min 458 W/m 9,7 km/h (2 Bft) 97,83 %
15.10.2023 14:18 10,4 C 11,1 C 6,7 C 81 % 1022,3 hPa 0,0 l/m 2 min 0 min 322 W/m 12,9 km/h (3 Bft) 97,87 %
15.10.2023 14:20 10,4 C 11,1 C 6,7 C 82 % 1022,3 hPa 0,0 l/m 2 min 0 min 559 W/m 19,3 km/h (3 Bft) 97,87 %
15.10.2023 14:22 10,5 C 10,6 C 6,7 C 81 % 1022,4 hPa 0,0 l/m 0 min 0 min 176 W/m 12,9 km/h (3 Bft) 93,62 %
15.10.2023 14:24 10,6 C 10,6 C 6,7 C 81 % 1022,4 hPa 0,0 l/m 0 min 0 min 156 W/m 16,1 km/h (3 Bft) 97,87 %
15.10.2023 14:26 10,6 C 10,6 C 6,7 C 80 % 1022,4 hPa 0,0 l/m 0 min 0 min 165 W/m 16,1 km/h (3 Bft) 97,87 %
15.10.2023 14:28 10,6 C 10,6 C 6,7 C 80 % 1022,4 hPa 0,0 l/m 0 min 0 min 131 W/m 12,9 km/h (3 Bft) 97,87 %
15.10.2023 14:30 10,5 C 10,0 C 6,7 C 79 % 1022,5 hPa 0,0 l/m 0 min 0 min 86 W/m 12,9 km/h (3 Bft) 97,87 %
15.10.2023 14:32 10,6 C 10,0 C 6,7 C 80 % 1022,5 hPa 0,0 l/m 2 min 0 min 487 W/m 16,1 km/h (3 Bft) 95,65 %
15.10.2023 14:34 10,5 C 10,0 C 6,7 C 80 % 1022,6 hPa 0,0 l/m 2 min 0 min 518 W/m 16,1 km/h (3 Bft) 97,87 %
15.10.2023 14:36 10,4 C 10,0 C 6,7 C 79 % 1022,5 hPa 0,0 l/m 2 min 0 min 513 W/m 12,9 km/h (3 Bft) 95,74 %
15.10.2023 14:38 10,5 C 10,0 C 6,7 C 80 % 1022,5 hPa 0,0 l/m 2 min 0 min 513 W/m 9,7 km/h (2 Bft) 97,87 %
15.10.2023 14:40 10,6 C 10,0 C 6,7 C 81 % 1022,4 hPa 0,0 l/m 2 min 0 min 512 W/m 9,7 km/h (2 Bft) 100,00 %
15.10.2023 14:42 10,6 C 10,0 C 6,7 C 81 % 1022,5 hPa 0,0 l/m 2 min 0 min 510 W/m 12,9 km/h (3 Bft) 97,87 %
15.10.2023 14:44 10,6 C 10,6 C 6,7 C 81 % 1022,4 hPa 0,0 l/m 2 min 0 min 507 W/m 12,9 km/h (3 Bft) 100,00 %
15.10.2023 14:46 10,6 C 10,0 C 6,7 C 80 % 1022,4 hPa 0,0 l/m 2 min 0 min 504 W/m 9,7 km/h (2 Bft) 97,83 %
15.10.2023 14:48 10,6 C 10,6 C 6,7 C 81 % 1022,4 hPa 0,0 l/m 2 min 0 min 503 W/m 6,4 km/h (2 Bft) 100,00 %
15.10.2023 14:50 10,7 C 10,6 C 6,7 C 81 % 1022,4 hPa 0,0 l/m 2 min 0 min 502 W/m 6,4 km/h (2 Bft) 100,00 %
15.10.2023 14:52 10,7 C 10,6 C 6,7 C 81 % 1022,4 hPa 0,0 l/m 2 min 0 min 505 W/m 12,9 km/h (3 Bft) 97,87 %
15.10.2023 14:54 10,7 C 10,0 C 6,7 C 81 % 1022,4 hPa 0,0 l/m 2 min 0 min 510 W/m 12,9 km/h (3 Bft) 100,00 %
15.10.2023 14:56 10,7 C 10,6 C 6,7 C 81 % 1022,4 hPa 0,0 l/m 2 min 0 min 527 W/m 16,1 km/h (3 Bft) 100,00 %
15.10.2023 14:58 10,7 C 10,6 C 6,7 C 81 % 1022,4 hPa 0,0 l/m 2 min 0 min 578 W/m 6,4 km/h (2 Bft) 100,00 %
15.10.2023 15:00 10,8 C 11,1 C 6,7 C 81 % 1022,4 hPa 0,0 l/m 2 min 0 min 582 W/m 12,9 km/h (3 Bft) 100,00 %
15.10.2023 15:02 10,8 C 10,6 C 6,7 C 81 % 1022,5 hPa 0,0 l/m 2 min 0 min 556 W/m 12,9 km/h (3 Bft) 100,00 %
15.10.2023 15:04 10,8 C 10,6 C 6,7 C 81 % 1022,5 hPa 0,0 l/m 2 min 0 min 540 W/m 19,3 km/h (3 Bft) 97,67 %
15.10.2023 15:08 10,8 C 10,6 C 6,7 C 80 % 1022,5 hPa 0,0 l/m 4 min 0 min 499 W/m 22,5 km/h (4 Bft) 100,00 %
15.10.2023 15:09 10,8 C 10,6 C 6,7 C 79 % 1022,5 hPa 0,0 l/m 1 min 0 min 490 W/m 12,9 km/h (3 Bft) 100,00 %
15.10.2023 15:10 10,8 C 10,6 C 6,7 C 79 % 1022,5 hPa 0,0 l/m 1 min 0 min 494 W/m 22,5 km/h (4 Bft) 100,00 %
15.10.2023 15:14 10,9 C 10,6 C 6,7 C 79 % 1022,5 hPa 0,0 l/m 0 min 0 min 96 W/m 16,1 km/h (3 Bft) 97,87 %
15.10.2023 15:16 10,9 C 10,6 C 6,7 C 79 % 1022,5 hPa 0,0 l/m 0 min 0 min 118 W/m 12,9 km/h (3 Bft) 97,87 %
15.10.2023 15:18 10,9 C 10,6 C 6,7 C 78 % 1022,5 hPa 0,0 l/m 2 min 0 min 280 W/m 16,1 km/h (3 Bft) 97,87 %
15.10.2023 15:20 10,9 C 10,6 C 6,7 C 78 % 1022,5 hPa 0,0 l/m 2 min 0 min 484 W/m 16,1 km/h (3 Bft) 97,83 %
15.10.2023 15:22 10,9 C 10,6 C 6,7 C 78 % 1022,5 hPa 0,0 l/m 2 min 0 min 477 W/m 9,7 km/h (2 Bft) 97,87 %
15.10.2023 15:24 10,9 C 10,6 C 6,7 C 77 % 1022,6 hPa 0,0 l/m 2 min 0 min 309 W/m 19,3 km/h (3 Bft) 97,87 %
15.10.2023 15:26 10,9 C 10,6 C 6,7 C 76 % 1022,6 hPa 0,0 l/m 0 min 0 min 100 W/m 12,9 km/h (3 Bft) 97,87 %
15.10.2023 15:28 10,9 C 11,1 C 6,7 C 75 % 1022,6 hPa 0,0 l/m 2 min 0 min 419 W/m 19,3 km/h (3 Bft) 95,74 %
15.10.2023 15:30 10,9 C 10,6 C 6,7 C 75 % 1022,6 hPa 0,0 l/m 2 min 0 min 361 W/m 16,1 km/h (3 Bft) 97,87 %
15.10.2023 15:32 10,9 C 11,1 C 6,7 C 75 % 1022,7 hPa 0,0 l/m 0 min 0 min 171 W/m 12,9 km/h (3 Bft) 97,87 %
15.10.2023 15:34 10,9 C 10,6 C 6,7 C 75 % 1022,7 hPa 0,0 l/m 0 min 0 min 174 W/m 16,1 km/h (3 Bft) 97,83 %
15.10.2023 15:36 10,9 C 10,6 C 6,7 C 75 % 1022,7 hPa 0,0 l/m 0 min 0 min 137 W/m 12,9 km/h (3 Bft) 95,74 %
15.10.2023 15:38 10,8 C 10,6 C 6,7 C 75 % 1022,6 hPa 0,0 l/m 0 min 0 min 121 W/m 22,5 km/h (4 Bft) 93,62 %
15.10.2023 15:40 10,8 C 10,6 C 6,7 C 74 % 1022,7 hPa 0,0 l/m 0 min 0 min 141 W/m 12,9 km/h (3 Bft) 95,74 %
15.10.2023 15:42 10,8 C 10,6 C 6,7 C 74 % 1022,7 hPa 0,0 l/m 0 min 0 min 118 W/m 9,7 km/h (2 Bft) 97,87 %
15.10.2023 15:44 10,8 C 10,6 C 6,7 C 74 % 1022,7 hPa 0,0 l/m 0 min 0 min 97 W/m 12,9 km/h (3 Bft) 97,87 %
15.10.2023 15:46 10,7 C 10,0 C 6,7 C 74 % 1022,7 hPa 0,0 l/m 0 min 0 min 58 W/m 9,7 km/h (2 Bft) 100,00 %
15.10.2023 15:48 10,7 C 10,0 C 6,7 C 74 % 1022,7 hPa 0,0 l/m 0 min 0 min 63 W/m 12,9 km/h (3 Bft) 95,74 %
15.10.2023 15:50 10,6 C 10,0 C 6,1 C 74 % 1022,7 hPa 0,0 l/m 0 min 0 min 90 W/m 6,4 km/h (2 Bft) 100,00 %
15.10.2023 15:52 10,6 C 10,0 C 6,1 C 75 % 1022,7 hPa 0,0 l/m 0 min 0 min 64 W/m 22,5 km/h (4 Bft) 97,87 %
15.10.2023 15:54 10,6 C 10,0 C 6,1 C 75 % 1022,7 hPa 0,0 l/m 0 min 0 min 86 W/m 12,9 km/h (3 Bft) 100,00 %
15.10.2023 15:56 10,5 C 10,0 C 6,1 C 75 % 1022,7 hPa 0,0 l/m 0 min 0 min 105 W/m 9,7 km/h (2 Bft) 93,62 %
15.10.2023 15:58 10,5 C 10,0 C 6,7 C 75 % 1022,8 hPa 0,0 l/m 2 min 0 min 313 W/m 12,9 km/h (3 Bft) 97,87 %
15.10.2023 16:00 10,5 C 10,0 C 6,7 C 75 % 1022,8 hPa 0,0 l/m 2 min 0 min 409 W/m 6,4 km/h (2 Bft) 97,83 %
15.10.2023 16:02 10,6 C 10,6 C 6,7 C 76 % 1022,8 hPa 0,0 l/m 2 min 0 min 390 W/m 9,7 km/h (2 Bft) 95,74 %
15.10.2023 16:04 10,6 C 10,6 C 6,7 C 76 % 1022,8 hPa 0,0 l/m 2 min 0 min 352 W/m 12,9 km/h (3 Bft) 100,00 %
15.10.2023 16:06 10,6 C 10,6 C 6,7 C 76 % 1022,8 hPa 0,0 l/m 2 min 0 min 352 W/m 9,7 km/h (2 Bft) 95,74 %
15.10.2023 16:08 10,6 C 11,1 C 6,7 C 76 % 1022,8 hPa 0,0 l/m 2 min 0 min 417 W/m 9,7 km/h (2 Bft) 97,87 %
15.10.2023 16:10 10,7 C 11,1 C 6,7 C 76 % 1022,9 hPa 0,0 l/m 2 min 0 min 328 W/m 9,7 km/h (2 Bft) 97,87 %
15.10.2023 16:12 10,7 C 10,6 C 6,7 C 76 % 1022,9 hPa 0,0 l/m 0 min 0 min 127 W/m 12,9 km/h (3 Bft) 97,62 %
15.10.2023 16:14 10,7 C 10,6 C 6,7 C 75 % 1022,8 hPa 0,0 l/m 0 min 0 min 117 W/m 6,4 km/h (2 Bft) 97,87 %
15.10.2023 16:16 10,8 C 10,6 C 6,7 C 75 % 1022,9 hPa 0,0 l/m 0 min 0 min 85 W/m 16,1 km/h (3 Bft) 97,87 %
15.10.2023 16:18 10,8 C 10,6 C 6,7 C 75 % 1023,0 hPa 0,0 l/m 0 min 0 min 58 W/m 19,3 km/h (3 Bft) 97,96 %
15.10.2023 16:20 10,7 C 10,0 C 6,7 C 75 % 1023,0 hPa 0,0 l/m 0 min 0 min 36 W/m 12,9 km/h (3 Bft) 97,87 %
15.10.2023 16:22 10,7 C 10,0 C 6,7 C 75 % 1023,2 hPa 0,0 l/m 0 min 0 min 28 W/m 32,2 km/h (5 Bft) 97,87 %
15.10.2023 16:24 10,6 C 9,4 C 5,6 C 76 % 1023,1 hPa 0,2 l/m 0 min 2 min 37 W/m 22,5 km/h (4 Bft) 97,87 %
15.10.2023 16:26 10,5 C 8,9 C 5,0 C 78 % 1023,3 hPa 0,2 l/m 0 min 2 min 59 W/m 35,4 km/h (5 Bft) 97,87 %
15.10.2023 16:28 10,2 C 8,3 C 4,4 C 79 % 1023,2 hPa 0,0 l/m 0 min 2 min 88 W/m 22,5 km/h (4 Bft) 97,87 %
15.10.2023 16:30 10,1 C 8,3 C 4,4 C 80 % 1023,1 hPa 0,0 l/m 0 min 2 min 104 W/m 6,4 km/h (2 Bft) 93,62 %
15.10.2023 16:32 9,9 C 8,3 C 4,4 C 81 % 1023,1 hPa 0,0 l/m 0 min 0 min 129 W/m 6,4 km/h (2 Bft) 97,83 %
15.10.2023 16:34 9,8 C 8,9 C 4,4 C 82 % 1023,1 hPa 0,2 l/m 2 min 0 min 149 W/m 3,2 km/h (1 Bft) 97,87 %
15.10.2023 16:36 9,7 C 8,9 C 4,4 C 83 % 1023,2 hPa 0,0 l/m 2 min 0 min 233 W/m 3,2 km/h (1 Bft) 95,74 %
15.10.2023 16:38 9,6 C 8,9 C 4,4 C 83 % 1023,1 hPa 0,0 l/m 0 min 0 min 110 W/m 6,4 km/h (2 Bft) 95,74 %
15.10.2023 16:40 9,6 C 8,9 C 4,4 C 84 % 1023,2 hPa 0,0 l/m 0 min 0 min 68 W/m 0,0 km/h (0 Bft) 97,87 %
15.10.2023 16:42 9,6 C 8,3 C 4,4 C 84 % 1023,2 hPa 0,0 l/m 0 min 0 min 48 W/m 0,0 km/h (0 Bft) 97,87 %
15.10.2023 16:44 9,5 C 8,3 C 4,4 C 85 % 1023,3 hPa 0,0 l/m 0 min 0 min 36 W/m 0,0 km/h (0 Bft) 100,00 %
15.10.2023 16:46 9,4 C 8,3 C 4,4 C 85 % 1023,3 hPa 0,0 l/m 0 min 0 min 33 W/m 0,0 km/h (0 Bft) 100,00 %
15.10.2023 16:48 9,4 C 8,3 C 3,9 C 85 % 1023,2 hPa 0,0 l/m 0 min 0 min 77 W/m 0,0 km/h (0 Bft) 97,87 %
15.10.2023 16:50 9,3 C 7,8 C 3,9 C 86 % 1023,3 hPa 0,0 l/m 2 min 0 min 201 W/m 0,0 km/h (0 Bft) 97,87 %
15.10.2023 16:52 9,3 C 7,8 C 3,9 C 86 % 1023,3 hPa 0,0 l/m 2 min 0 min 231 W/m 0,0 km/h (0 Bft) 97,87 %
15.10.2023 16:54 9,2 C 8,3 C 3,9 C 86 % 1023,2 hPa 0,0 l/m 2 min 0 min 213 W/m 0,0 km/h (0 Bft) 95,92 %
15.10.2023 16:56 9,2 C 8,3 C 3,9 C 86 % 1023,2 hPa 0,0 l/m 2 min 0 min 154 W/m 0,0 km/h (0 Bft) 97,87 %
15.10.2023 16:58 9,1 C 8,3 C 3,9 C 87 % 1023,2 hPa 0,0 l/m 2 min 0 min 197 W/m 6,4 km/h (2 Bft) 97,87 %
15.10.2023 17:00 9,1 C 8,3 C 3,9 C 87 % 1023,2 hPa 0,0 l/m 2 min 0 min 150 W/m 9,7 km/h (2 Bft) 95,65 %
15.10.2023 17:02 9,1 C 8,3 C 4,4 C 87 % 1023,2 hPa 0,0 l/m 0 min 0 min 96 W/m 6,4 km/h (2 Bft) 97,87 %
15.10.2023 17:04 9,1 C 8,3 C 4,4 C 87 % 1023,2 hPa 0,0 l/m 0 min 0 min 74 W/m 3,2 km/h (1 Bft) 97,56 %
15.10.2023 17:08 9,1 C 8,3 C 4,4 C 88 % 1023,2 hPa 0,0 l/m 4 min 0 min 141 W/m 9,7 km/h (2 Bft) 95,24 %
15.10.2023 17:09 9,1 C 8,3 C 4,4 C 88 % 1023,2 hPa 0,0 l/m 1 min 0 min 137 W/m 6,4 km/h (2 Bft) 95,65 %
15.10.2023 17:10 9,1 C 8,3 C 4,4 C 88 % 1023,2 hPa 0,0 l/m 1 min 0 min 123 W/m 9,7 km/h (2 Bft) 98,25 %
15.10.2023 17:14 9,1 C 8,3 C 4,4 C 88 % 1023,2 hPa 0,0 l/m 0 min 0 min 37 W/m 3,2 km/h (1 Bft) 96,55 %
15.10.2023 17:16 9,1 C 8,3 C 4,4 C 88 % 1023,2 hPa 0,0 l/m 0 min 0 min 36 W/m 3,2 km/h (1 Bft) 95,74 %
15.10.2023 17:18 9,1 C 8,3 C 4,4 C 88 % 1023,2 hPa 0,0 l/m 0 min 0 min 35 W/m 3,2 km/h (1 Bft) 93,62 %
15.10.2023 17:20 9,1 C 8,3 C 5,0 C 89 % 1023,2 hPa 0,0 l/m 0 min 0 min 35 W/m 6,4 km/h (2 Bft) 100,00 %
15.10.2023 17:22 9,1 C 8,9 C 5,0 C 89 % 1023,2 hPa 0,0 l/m 0 min 0 min 35 W/m 6,4 km/h (2 Bft) 100,00 %
15.10.2023 17:24 9,1 C 8,9 C 5,0 C 89 % 1023,2 hPa 0,0 l/m 0 min 0 min 33 W/m 3,2 km/h (1 Bft) 97,87 %
15.10.2023 17:26 9,1 C 8,9 C 5,0 C 89 % 1023,2 hPa 0,0 l/m 0 min 0 min 33 W/m 0,0 km/h (0 Bft) 100,00 %
15.10.2023 17:28 9,1 C 8,9 C 5,0 C 89 % 1023,3 hPa 0,0 l/m 0 min 0 min 32 W/m 0,0 km/h (0 Bft) 100,00 %
15.10.2023 17:30 9,2 C 8,9 C 5,0 C 89 % 1023,3 hPa 0,0 l/m 0 min 0 min 32 W/m 0,0 km/h (0 Bft) 95,65 %
15.10.2023 17:32 9,2 C 8,9 C 5,0 C 89 % 1023,3 hPa 0,0 l/m 0 min 0 min 32 W/m 0,0 km/h (0 Bft) 97,87 %
15.10.2023 17:34 9,2 C 8,9 C 5,0 C 89 % 1023,2 hPa 0,0 l/m 0 min 0 min 31 W/m 0,0 km/h (0 Bft) 97,87 %
15.10.2023 17:36 9,2 C 8,9 C 5,0 C 89 % 1023,3 hPa 0,0 l/m 0 min 0 min 30 W/m 0,0 km/h (0 Bft) 95,74 %
15.10.2023 17:38 9,3 C 8,9 C 5,0 C 89 % 1023,2 hPa 0,0 l/m 0 min 0 min 30 W/m 0,0 km/h (0 Bft) 97,87 %
15.10.2023 17:40 9,3 C 8,9 C 5,0 C 89 % 1023,3 hPa 0,0 l/m 0 min 0 min 29 W/m 0,0 km/h (0 Bft) 97,87 %
15.10.2023 17:42 9,3 C 8,9 C 5,6 C 89 % 1023,2 hPa 0,0 l/m 0 min 0 min 28 W/m 0,0 km/h (0 Bft) 97,87 %
15.10.2023 17:44 9,3 C 8,9 C 5,6 C 89 % 1023,3 hPa 0,0 l/m 0 min 0 min 28 W/m 9,7 km/h (2 Bft) 95,65 %
15.10.2023 17:46 9,3 C 8,9 C 5,0 C 88 % 1023,3 hPa 0,0 l/m 0 min 0 min 27 W/m 12,9 km/h (3 Bft) 95,74 %
15.10.2023 17:48 9,2 C 8,9 C 5,0 C 88 % 1023,3 hPa 0,0 l/m 0 min 0 min 27 W/m 9,7 km/h (2 Bft) 95,74 %
15.10.2023 17:50 9,2 C 8,9 C 5,0 C 88 % 1023,3 hPa 0,0 l/m 0 min 0 min 29 W/m 6,4 km/h (2 Bft) 97,87 %
15.10.2023 17:52 9,2 C 8,9 C 5,0 C 88 % 1023,3 hPa 0,0 l/m 0 min 0 min 31 W/m 3,2 km/h (1 Bft) 97,87 %
15.10.2023 17:54 9,2 C 8,3 C 5,0 C 88 % 1023,3 hPa 0,0 l/m 0 min 0 min 32 W/m 9,7 km/h (2 Bft) 97,87 %
15.10.2023 17:56 9,2 C 8,9 C 5,0 C 88 % 1023,4 hPa 0,0 l/m 0 min 0 min 29 W/m 9,7 km/h (2 Bft) 95,65 %
15.10.2023 17:58 9,2 C 8,9 C 5,0 C 88 % 1023,3 hPa 0,0 l/m 0 min 0 min 25 W/m 6,4 km/h (2 Bft) 93,62 %
15.10.2023 18:00 9,3 C 8,3 C 5,0 C 88 % 1023,3 hPa 0,0 l/m 0 min 0 min 24 W/m 3,2 km/h (1 Bft) 95,74 %
15.10.2023 18:02 9,3 C 8,3 C 5,0 C 88 % 1023,3 hPa 0,0 l/m 0 min 0 min 27 W/m 9,7 km/h (2 Bft) 95,74 %
15.10.2023 18:04 9,3 C 8,3 C 5,0 C 87 % 1023,4 hPa 0,0 l/m 0 min 0 min 29 W/m 3,2 km/h (1 Bft) 93,75 %
15.10.2023 18:08 9,2 C 8,3 C 5,0 C 87 % 1023,4 hPa 0,0 l/m 0 min 0 min 32 W/m 3,2 km/h (1 Bft) 95,88 %
15.10.2023 18:10 9,2 C 8,3 C 5,0 C 88 % 1023,4 hPa 0,0 l/m 0 min 0 min 28 W/m 3,2 km/h (1 Bft) 95,65 %
15.10.2023 18:12 9,2 C 8,3 C 5,0 C 88 % 1023,4 hPa 0,0 l/m 0 min 0 min 24 W/m 0,0 km/h (0 Bft) 95,74 %
15.10.2023 18:16 9,2 C 8,3 C 5,0 C 88 % 1023,5 hPa 0,0 l/m 0 min 0 min 24 W/m 6,4 km/h (2 Bft) 95,74 %
15.10.2023 18:18 9,2 C 8,3 C 5,0 C 88 % 1023,5 hPa 0,0 l/m 0 min 0 min 19 W/m 3,2 km/h (1 Bft) 95,74 %
15.10.2023 18:20 9,2 C 8,3 C 5,0 C 88 % 1023,5 hPa 0,0 l/m 0 min 0 min 15 W/m 9,7 km/h (2 Bft) 95,74 %
15.10.2023 18:22 9,2 C 8,3 C 5,0 C 88 % 1023,5 hPa 0,0 l/m 0 min 0 min 12 W/m 6,4 km/h (2 Bft) 97,83 %
15.10.2023 18:24 9,2 C 8,3 C 5,0 C 88 % 1023,5 hPa 0,0 l/m 0 min 0 min 11 W/m 3,2 km/h (1 Bft) 97,87 %
15.10.2023 18:26 9,1 C 8,3 C 5,0 C 88 % 1023,5 hPa 0,0 l/m 0 min 0 min 10 W/m 3,2 km/h (1 Bft) 95,74 %
15.10.2023 18:28 9,1 C 8,3 C 5,0 C 88 % 1023,5 hPa 0,0 l/m 0 min 0 min 9 W/m 6,4 km/h (2 Bft) 97,87 %
15.10.2023 18:30 9,1 C 8,3 C 5,0 C 87 % 1023,6 hPa 0,0 l/m 0 min 0 min 9 W/m 3,2 km/h (1 Bft) 100,00 %
15.10.2023 18:32 9,1 C 8,3 C 5,0 C 87 % 1023,5 hPa 0,0 l/m 0 min 0 min 7 W/m 6,4 km/h (2 Bft) 97,87 %
15.10.2023 18:34 9,1 C 7,8 C 5,0 C 87 % 1023,5 hPa 0,0 l/m 0 min 0 min 7 W/m 3,2 km/h (1 Bft) 95,74 %
15.10.2023 18:36 9,1 C 7,8 C 4,4 C 87 % 1023,6 hPa 0,0 l/m 0 min 0 min 5 W/m 3,2 km/h (1 Bft) 95,65 %
15.10.2023 18:38 9,1 C 7,8 C 4,4 C 87 % 1023,7 hPa 0,0 l/m 0 min 0 min 5 W/m 3,2 km/h (1 Bft) 95,74 %
15.10.2023 18:40 9,0 C 7,8 C 4,4 C 87 % 1023,7 hPa 0,0 l/m 0 min 0 min 0 W/m 3,2 km/h (1 Bft) 93,62 %
15.10.2023 18:42 9,0 C 7,8 C 4,4 C 87 % 1023,7 hPa 0,0 l/m 0 min 0 min 0 W/m 0,0 km/h (0 Bft) 95,74 %
15.10.2023 18:44 8,9 C 7,2 C 4,4 C 87 % 1023,7 hPa 0,0 l/m 0 min 0 min 0 W/m 3,2 km/h (1 Bft) 95,74 %
15.10.2023 18:46 8,9 C 7,2 C 4,4 C 87 % 1023,8 hPa 0,0 l/m 0 min 0 min 0 W/m 0,0 km/h (0 Bft) 97,87 %
15.10.2023 18:48 8,8 C 7,2 C 4,4 C 87 % 1023,8 hPa 0,0 l/m 0 min 0 min 0 W/m 0,0 km/h (0 Bft) 95,74 %
15.10.2023 18:50 8,8 C 7,2 C 4,4 C 88 % 1023,8 hPa 0,0 l/m 0 min 0 min 0 W/m 3,2 km/h (1 Bft) 95,74 %
15.10.2023 18:52 8,8 C 7,2 C 3,9 C 88 % 1023,9 hPa 0,0 l/m 0 min 0 min 0 W/m 3,2 km/h (1 Bft) 95,65 %
15.10.2023 18:54 8,8 C 7,2 C 4,4 C 88 % 1023,9 hPa 0,0 l/m 0 min 0 min 0 W/m 3,2 km/h (1 Bft) 97,87 %
15.10.2023 18:56 8,7 C 7,2 C 4,4 C 88 % 1023,9 hPa 0,0 l/m 0 min 0 min 0 W/m 3,2 km/h (1 Bft) 97,87 %
15.10.2023 18:58 8,6 C 7,2 C 4,4 C 88 % 1023,9 hPa 0,0 l/m 0 min 0 min 0 W/m 3,2 km/h (1 Bft) 97,87 %
15.10.2023 19:00 8,6 C 7,2 C 4,4 C 88 % 1023,9 hPa 0,0 l/m 0 min 0 min 0 W/m 3,2 km/h (1 Bft) 100,00 %
15.10.2023 19:02 8,6 C 7,2 C 3,9 C 88 % 1023,8 hPa 0,0 l/m 0 min 0 min 0 W/m 3,2 km/h (1 Bft) 100,00 %
15.10.2023 19:04 8,5 C 7,2 C 3,9 C 88 % 1023,9 hPa 0,0 l/m 0 min 0 min 0 W/m 0,0 km/h (0 Bft) 96,00 %
15.10.2023 19:06 8,4 C 7,2 C 3,9 C 88 % 1023,9 hPa 0,0 l/m 0 min 0 min 0 W/m 0,0 km/h (0 Bft) 97,87 %
15.10.2023 19:08 8,4 C 7,2 C 3,9 C 88 % 1023,9 hPa 0,0 l/m 0 min 0 min 0 W/m 0,0 km/h (0 Bft) 100,00 %
15.10.2023 19:10 8,3 C 6,7 C 3,9 C 88 % 1024,0 hPa 0,0 l/m 0 min 0 min 0 W/m 0,0 km/h (0 Bft) 100,00 %
15.10.2023 19:12 8,3 C 6,7 C 3,3 C 88 % 1024,0 hPa 0,0 l/m 0 min 0 min 0 W/m 0,0 km/h (0 Bft) 100,00 %
15.10.2023 19:14 8,3 C 6,7 C 3,3 C 88 % 1024,1 hPa 0,0 l/m 0 min 0 min 0 W/m 0,0 km/h (0 Bft) 100,00 %
15.10.2023 19:16 8,2 C 6,7 C 3,3 C 88 % 1024,1 hPa 0,0 l/m 0 min 0 min 0 W/m 0,0 km/h (0 Bft) 97,87 %
15.10.2023 19:18 8,2 C 6,7 C 3,3 C 88 % 1024,1 hPa 0,0 l/m 0 min 0 min 0 W/m 0,0 km/h (0 Bft) 100,00 %
15.10.2023 19:20 8,1 C 6,7 C 3,3 C 88 % 1024,2 hPa 0,0 l/m 0 min 0 min 0 W/m 0,0 km/h (0 Bft) 97,83 %
15.10.2023 19:22 8,1 C 6,7 C 3,3 C 88 % 1024,2 hPa 0,0 l/m 0 min 0 min 0 W/m 3,2 km/h (1 Bft) 95,74 %
15.10.2023 19:24 8,0 C 6,7 C 3,3 C 88 % 1024,2 hPa 0,0 l/m 0 min 0 min 0 W/m 0,0 km/h (0 Bft) 100,00 %
15.10.2023 19:26 7,9 C 6,7 C 3,3 C 88 % 1024,2 hPa 0,0 l/m 0 min 0 min 0 W/m 3,2 km/h (1 Bft) 97,87 %
15.10.2023 19:28 7,9 C 6,7 C 3,3 C 88 % 1024,2 hPa 0,0 l/m 0 min 0 min 0 W/m 3,2 km/h (1 Bft) 97,87 %
15.10.2023 19:30 7,9 C 6,7 C 3,3 C 89 % 1024,3 hPa 0,0 l/m 0 min 0 min 0 W/m 3,2 km/h (1 Bft) 100,00 %
15.10.2023 19:32 7,9 C 7,2 C 3,9 C 89 % 1024,4 hPa 0,0 l/m 0 min 0 min 0 W/m 6,4 km/h (2 Bft) 100,00 %
15.10.2023 19:34 7,9 C 7,2 C 3,9 C 89 % 1024,5 hPa 0,0 l/m 0 min 0 min 0 W/m 22,5 km/h (4 Bft) 100,00 %
15.10.2023 19:36 7,9 C 7,2 C 3,9 C 89 % 1024,4 hPa 0,0 l/m 0 min 0 min 0 W/m 12,9 km/h (3 Bft) 95,74 %
15.10.2023 19:38 7,9 C 7,2 C 4,4 C 89 % 1024,4 hPa 0,0 l/m 0 min 0 min 0 W/m 12,9 km/h (3 Bft) 95,74 %
15.10.2023 19:40 7,9 C 7,2 C 4,4 C 88 % 1024,4 hPa 0,0 l/m 0 min 0 min 0 W/m 6,4 km/h (2 Bft) 97,87 %
15.10.2023 19:42 7,9 C 7,2 C 4,4 C 88 % 1024,5 hPa 0,0 l/m 0 min 0 min 0 W/m 12,9 km/h (3 Bft) 97,83 %
15.10.2023 19:44 7,9 C 7,2 C 3,9 C 88 % 1024,4 hPa 0,0 l/m 0 min 0 min 0 W/m 12,9 km/h (3 Bft) 95,74 %
15.10.2023 19:46 7,9 C 7,2 C 3,9 C 88 % 1024,4 hPa 0,0 l/m 0 min 0 min 0 W/m 3,2 km/h (1 Bft) 93,62 %
15.10.2023 19:48 7,9 C 7,2 C 3,9 C 89 % 1024,4 hPa 0,0 l/m 0 min 0 min 0 W/m 3,2 km/h (1 Bft) 97,87 %
15.10.2023 19:50 8,0 C 7,2 C 3,9 C 89 % 1024,4 hPa 0,0 l/m 0 min 0 min 0 W/m 6,4 km/h (2 Bft) 97,87 %
15.10.2023 19:52 8,1 C 7,2 C 3,9 C 89 % 1024,4 hPa 0,0 l/m 0 min 0 min 0 W/m 3,2 km/h (1 Bft) 95,74 %
15.10.2023 19:54 8,1 C 7,2 C 3,9 C 89 % 1024,3 hPa 0,0 l/m 0 min 0 min 0 W/m 0,0 km/h (0 Bft) 97,14 %
15.10.2023 19:56 8,1 C 7,2 C 3,9 C 89 % 1024,3 hPa 0,0 l/m 0 min 0 min 0 W/m 3,2 km/h (1 Bft) 97,87 %
15.10.2023 19:58 8,1 C 7,2 C 3,9 C 89 % 1024,3 hPa 0,0 l/m 0 min 0 min 0 W/m 0,0 km/h (0 Bft) 98,28 %
15.10.2023 20:00 8,1 C 7,2 C 4,4 C 89 % 1024,3 hPa 0,0 l/m 0 min 0 min 0 W/m 0,0 km/h (0 Bft) 97,87 %
15.10.2023 20:02 8,1 C 7,2 C 4,4 C 89 % 1024,4 hPa 0,0 l/m 0 min 0 min 0 W/m 3,2 km/h (1 Bft) 95,74 %
15.10.2023 20:04 8,1 C 7,2 C 4,4 C 90 % 1024,4 hPa 0,0 l/m 0 min 0 min 0 W/m 3,2 km/h (1 Bft) 97,78 %
15.10.2023 20:10 8,2 C 7,2 C 4,4 C 90 % 1024,6 hPa 0,0 l/m 0 min 0 min 0 W/m 6,4 km/h (2 Bft) 95,74 %
15.10.2023 20:12 8,2 C 7,2 C 4,4 C 90 % 1024,6 hPa 0,0 l/m 0 min 0 min 0 W/m 3,2 km/h (1 Bft) 97,87 %
15.10.2023 20:14 8,2 C 7,2 C 4,4 C 90 % 1024,6 hPa 0,0 l/m 0 min 0 min 0 W/m 3,2 km/h (1 Bft) 97,87 %
15.10.2023 20:16 8,2 C 7,2 C 3,9 C 90 % 1024,6 hPa 0,0 l/m 0 min 0 min 0 W/m 3,2 km/h (1 Bft) 97,87 %
15.10.2023 20:18 8,2 C 7,2 C 3,9 C 90 % 1024,6 hPa 0,0 l/m 0 min 0 min 0 W/m 3,2 km/h (1 Bft) 97,87 %
15.10.2023 20:20 8,2 C 7,2 C 3,9 C 90 % 1024,6 hPa 0,0 l/m 0 min 0 min 0 W/m 3,2 km/h (1 Bft) 97,83 %
15.10.2023 20:22 8,2 C 7,2 C 3,9 C 90 % 1024,7 hPa 0,0 l/m 0 min 0 min 0 W/m 3,2 km/h (1 Bft) 97,22 %
15.10.2023 20:24 8,2 C 7,2 C 3,9 C 91 % 1024,7 hPa 0,0 l/m 0 min 0 min 0 W/m 0,0 km/h (0 Bft) 78,26 %
15.10.2023 20:26 8,1 C 7,2 C 3,9 C 91 % 1024,6 hPa 0,0 l/m 0 min 0 min 0 W/m 6,4 km/h (2 Bft) 74,51 %
15.10.2023 20:28 8,1 C 7,2 C 3,9 C 90 % 1024,6 hPa 0,0 l/m 0 min 0 min 0 W/m 6,4 km/h (2 Bft) 98,11 %
15.10.2023 20:30 8,1 C 7,2 C 3,9 C 90 % 1024,6 hPa 0,0 l/m 0 min 0 min 0 W/m 6,4 km/h (2 Bft) 97,14 %
15.10.2023 20:32 8,1 C 7,2 C 3,9 C 90 % 1024,6 hPa 0,0 l/m 0 min 0 min 0 W/m 3,2 km/h (1 Bft) 97,87 %
15.10.2023 20:34 8,0 C 6,7 C 3,9 C 90 % 1024,7 hPa 0,0 l/m 0 min 0 min 0 W/m 6,4 km/h (2 Bft) 97,87 %
15.10.2023 20:36 8,0 C 6,7 C 3,9 C 91 % 1024,7 hPa 0,0 l/m 0 min 0 min 0 W/m 3,2 km/h (1 Bft) 97,87 %
15.10.2023 20:38 7,9 C 6,7 C 3,9 C 91 % 1024,7 hPa 0,0 l/m 0 min 0 min 0 W/m 3,2 km/h (1 Bft) 100,00 %
15.10.2023 20:40 7,9 C 6,7 C 3,3 C 91 % 1024,7 hPa 0,0 l/m 0 min 0 min 0 W/m 0,0 km/h (0 Bft) 100,00 %
15.10.2023 20:42 7,8 C 6,7 C 3,3 C 91 % 1024,8 hPa 0,0 l/m 0 min 0 min 0 W/m 0,0 km/h (0 Bft) 97,83 %
15.10.2023 20:44 7,8 C 6,7 C 3,3 C 91 % 1024,8 hPa 0,0 l/m 0 min 0 min 0 W/m 0,0 km/h (0 Bft) 98,11 %
15.10.2023 20:46 7,8 C 6,7 C 3,3 C 91 % 1024,8 hPa 0,0 l/m 0 min 0 min 0 W/m 3,2 km/h (1 Bft) 97,87 %
15.10.2023 20:48 7,7 C 6,7 C 3,3 C 91 % 1024,8 hPa 0,0 l/m 0 min 0 min 0 W/m 3,2 km/h (1 Bft) 95,74 %
15.10.2023 20:50 7,7 C 6,7 C 3,3 C 91 % 1024,9 hPa 0,0 l/m 0 min 0 min 0 W/m 3,2 km/h (1 Bft) 100,00 %
15.10.2023 20:52 7,7 C 6,1 C 3,3 C 91 % 1024,8 hPa 0,0 l/m 0 min 0 min 0 W/m 0,0 km/h (0 Bft) 100,00 %
15.10.2023 20:54 7,6 C 6,1 C 3,3 C 91 % 1024,9 hPa 0,0 l/m 0 min 0 min 0 W/m 0,0 km/h (0 Bft) 100,00 %
15.10.2023 20:56 7,6 C 6,1 C 3,3 C 91 % 1024,9 hPa 0,0 l/m 0 min 0 min 0 W/m 0,0 km/h (0 Bft) 100,00 %
15.10.2023 20:58 7,6 C 6,1 C 3,3 C 91 % 1025,0 hPa 0,0 l/m 0 min 0 min 0 W/m 0,0 km/h (0 Bft) 97,87 %
15.10.2023 21:00 7,6 C 6,1 C 3,3 C 91 % 1024,9 hPa 0,0 l/m 0 min 0 min 0 W/m 0,0 km/h (0 Bft) 100,00 %
15.10.2023 21:02 7,5 C 6,1 C 2,8 C 91 % 1025,0 hPa 0,0 l/m 0 min 0 min 0 W/m 0,0 km/h (0 Bft) 100,00 %
15.10.2023 21:04 7,4 C 6,1 C 2,8 C 91 % 1025,0 hPa 0,0 l/m 0 min 0 min 0 W/m 0,0 km/h (0 Bft) 97,92 %
15.10.2023 21:10 7,3 C 6,1 C 3,3 C 91 % 1025,0 hPa 0,0 l/m 0 min 0 min 0 W/m 3,2 km/h (1 Bft) 97,16 %
15.10.2023 21:12 7,3 C 6,1 C 2,8 C 91 % 1025,0 hPa 0,0 l/m 0 min 0 min 0 W/m 0,0 km/h (0 Bft) 97,87 %
15.10.2023 21:14 7,2 C 6,1 C 2,8 C 91 % 1025,0 hPa 0,0 l/m 0 min 0 min 0 W/m 3,2 km/h (1 Bft) 100,00 %
15.10.2023 21:16 7,2 C 6,1 C 2,8 C 91 % 1025,0 hPa 0,0 l/m 0 min 0 min 0 W/m 0,0 km/h (0 Bft) 100,00 %
15.10.2023 21:18 7,2 C 6,1 C 2,8 C 91 % 1025,0 hPa 0,0 l/m 0 min 0 min 0 W/m 0,0 km/h (0 Bft) 97,87 %
15.10.2023 21:20 7,2 C 6,1 C 2,8 C 91 % 1025,0 hPa 0,0 l/m 0 min 0 min 0 W/m 0,0 km/h (0 Bft) 97,87 %
15.10.2023 21:22 7,1 C 6,1 C 2,8 C 91 % 1025,0 hPa 0,0 l/m 0 min 0 min 0 W/m 0,0 km/h (0 Bft) 95,74 %
15.10.2023 21:24 7,1 C 6,1 C 2,8 C 92 % 1025,1 hPa 0,0 l/m 0 min 0 min 0 W/m 0,0 km/h (0 Bft) 93,62 %
15.10.2023 21:26 7,1 C 6,1 C 2,8 C 92 % 1025,0 hPa 0,0 l/m 0 min 0 min 0 W/m 0,0 km/h (0 Bft) 95,65 %
15.10.2023 21:28 7,1 C 6,1 C 2,8 C 92 % 1025,1 hPa 0,0 l/m 0 min 0 min 0 W/m 0,0 km/h (0 Bft) 97,87 %
15.10.2023 21:30 7,0 C 6,1 C 2,8 C 92 % 1025,1 hPa 0,0 l/m 0 min 0 min 0 W/m 0,0 km/h (0 Bft) 93,62 %
15.10.2023 21:32 7,0 C 6,1 C 2,8 C 92 % 1025,1 hPa 0,0 l/m 0 min 0 min 0 W/m 0,0 km/h (0 Bft) 97,87 %
15.10.2023 21:34 7,0 C 6,1 C 2,8 C 92 % 1025,1 hPa 0,0 l/m 0 min 0 min 0 W/m 0,0 km/h (0 Bft) 97,87 %
15.10.2023 21:36 6,9 C 6,1 C 2,8 C 92 % 1025,1 hPa 0,0 l/m 0 min 0 min 0 W/m 3,2 km/h (1 Bft) 95,74 %
15.10.2023 21:38 6,9 C 6,1 C 2,8 C 92 % 1025,1 hPa 0,0 l/m 0 min 0 min 0 W/m 3,2 km/h (1 Bft) 97,87 %
15.10.2023 21:40 6,9 C 6,1 C 2,8 C 92 % 1025,1 hPa 0,0 l/m 0 min 0 min 0 W/m 0,0 km/h (0 Bft) 97,87 %
15.10.2023 21:42 6,9 C 6,1 C 2,8 C 92 % 1025,2 hPa 0,0 l/m 0 min 0 min 0 W/m 3,2 km/h (1 Bft) 93,62 %
15.10.2023 21:44 6,9 C 6,1 C 2,8 C 92 % 1025,2 hPa 0,0 l/m 0 min 0 min 0 W/m 0,0 km/h (0 Bft) 93,48 %
15.10.2023 21:46 6,9 C 6,1 C 2,8 C 92 % 1025,2 hPa 0,0 l/m 0 min 0 min 0 W/m 0,0 km/h (0 Bft) 93,62 %
15.10.2023 21:48 6,9 C 6,1 C 2,8 C 92 % 1025,2 hPa 0,0 l/m 0 min 0 min 0 W/m 0,0 km/h (0 Bft) 89,36 %
15.10.2023 21:50 6,9 C 6,1 C 2,8 C 92 % 1025,2 hPa 0,0 l/m 0 min 0 min 0 W/m 0,0 km/h (0 Bft) 93,62 %
15.10.2023 21:52 6,8 C 5,6 C 2,8 C 92 % 1025,2 hPa 0,0 l/m 0 min 0 min 0 W/m 0,0 km/h (0 Bft) 93,62 %
15.10.2023 21:54 6,8 C 5,6 C 2,8 C 92 % 1025,2 hPa 0,0 l/m 0 min 0 min 0 W/m 0,0 km/h (0 Bft) 93,75 %
15.10.2023 21:56 6,8 C 5,6 C 2,8 C 92 % 1025,2 hPa 0,0 l/m 0 min 0 min 0 W/m 0,0 km/h (0 Bft) 93,62 %
15.10.2023 21:58 6,8 C 5,6 C 2,8 C 92 % 1025,2 hPa 0,0 l/m 0 min 0 min 0 W/m 3,2 km/h (1 Bft) 93,62 %
15.10.2023 22:00 6,7 C 5,6 C 2,8 C 92 % 1025,3 hPa 0,0 l/m 0 min 0 min 0 W/m 3,2 km/h (1 Bft) 93,62 %
15.10.2023 22:02 6,7 C 5,6 C 2,8 C 93 % 1025,2 hPa 0,0 l/m 0 min 0 min 0 W/m 3,2 km/h (1 Bft) 93,48 %
15.10.2023 22:04 6,7 C 5,6 C 2,8 C 93 % 1025,3 hPa 0,0 l/m 0 min 0 min 0 W/m 3,2 km/h (1 Bft) 90,38 %
15.10.2023 22:10 6,6 C 5,6 C 2,8 C 92 % 1025,3 hPa 0,0 l/m 0 min 0 min 0 W/m 0,0 km/h (0 Bft) 93,13 %
15.10.2023 22:12 6,6 C 5,6 C 2,8 C 92 % 1025,3 hPa 0,0 l/m 0 min 0 min 0 W/m 3,2 km/h (1 Bft) 95,74 %
15.10.2023 22:14 6,6 C 5,6 C 2,8 C 92 % 1025,3 hPa 0,0 l/m 0 min 0 min 0 W/m 3,2 km/h (1 Bft) 97,87 %
15.10.2023 22:16 6,6 C 5,6 C 2,8 C 92 % 1025,3 hPa 0,0 l/m 0 min 0 min 0 W/m 0,0 km/h (0 Bft) 95,74 %
15.10.2023 22:18 6,5 C 5,6 C 2,8 C 92 % 1025,2 hPa 0,0 l/m 0 min 0 min 0 W/m 3,2 km/h (1 Bft) 97,83 %
15.10.2023 22:20 6,5 C 5,6 C 2,8 C 93 % 1025,3 hPa 0,0 l/m 0 min 0 min 0 W/m 3,2 km/h (1 Bft) 97,87 %
15.10.2023 22:22 6,5 C 5,6 C 2,8 C 93 % 1025,2 hPa 0,0 l/m 0 min 0 min 0 W/m 3,2 km/h (1 Bft) 95,74 %
15.10.2023 22:24 6,5 C 5,6 C 2,8 C 93 % 1025,2 hPa 0,0 l/m 0 min 0 min 0 W/m 0,0 km/h (0 Bft) 95,74 %
15.10.2023 22:26 6,5 C 5,6 C 2,8 C 93 % 1025,2 hPa 0,0 l/m 0 min 0 min 0 W/m 0,0 km/h (0 Bft) 97,92 %
15.10.2023 22:28 6,5 C 5,6 C 2,8 C 93 % 1025,2 hPa 0,0 l/m 0 min 0 min 0 W/m 0,0 km/h (0 Bft) 100,00 %
15.10.2023 22:30 6,5 C 5,6 C 2,8 C 93 % 1025,3 hPa 0,0 l/m 0 min 0 min 0 W/m 0,0 km/h (0 Bft) 100,00 %
15.10.2023 22:32 6,4 C 5,6 C 2,8 C 93 % 1025,2 hPa 0,0 l/m 0 min 0 min 0 W/m 0,0 km/h (0 Bft) 100,00 %
15.10.2023 22:34 6,4 C 5,6 C 2,2 C 93 % 1025,3 hPa 0,0 l/m 0 min 0 min 0 W/m 0,0 km/h (0 Bft) 100,00 %
15.10.2023 22:36 6,4 C 5,6 C 2,2 C 93 % 1025,2 hPa 0,0 l/m 0 min 0 min 0 W/m 0,0 km/h (0 Bft) 97,83 %
15.10.2023 22:38 6,4 C 5,6 C 2,2 C 93 % 1025,2 hPa 0,0 l/m 0 min 0 min 0 W/m 0,0 km/h (0 Bft) 100,00 %
15.10.2023 22:40 6,3 C 5,6 C 2,2 C 93 % 1025,2 hPa 0,0 l/m 0 min 0 min 0 W/m 0,0 km/h (0 Bft) 100,00 %
15.10.2023 22:42 6,3 C 5,6 C 2,2 C 93 % 1025,2 hPa 0,0 l/m 0 min 0 min 0 W/m 0,0 km/h (0 Bft) 100,00 %
15.10.2023 22:44 6,3 C 5,0 C 2,2 C 93 % 1025,3 hPa 0,0 l/m 0 min 0 min 0 W/m 0,0 km/h (0 Bft) 97,87 %
15.10.2023 22:46 6,3 C 5,0 C 2,2 C 93 % 1025,3 hPa 0,0 l/m 0 min 0 min 0 W/m 0,0 km/h (0 Bft) 97,87 %
15.10.2023 22:48 6,3 C 5,0 C 2,2 C 93 % 1025,3 hPa 0,0 l/m 0 min 0 min 0 W/m 0,0 km/h (0 Bft) 100,00 %
15.10.2023 22:50 6,2 C 5,0 C 2,2 C 93 % 1025,3 hPa 0,0 l/m 0 min 0 min 0 W/m 0,0 km/h (0 Bft) 100,00 %
15.10.2023 22:52 6,2 C 5,0 C 2,2 C 93 % 1025,3 hPa 0,0 l/m 0 min 0 min 0 W/m 0,0 km/h (0 Bft) 100,00 %
15.10.2023 22:54 6,2 C 5,0 C 2,2 C 93 % 1025,3 hPa 0,0 l/m 0 min 0 min 0 W/m 0,0 km/h (0 Bft) 100,00 %
15.10.2023 22:56 6,2 C 5,0 C 2,2 C 93 % 1025,3 hPa 0,0 l/m 0 min 0 min 0 W/m 0,0 km/h (0 Bft) 100,00 %
15.10.2023 22:58 6,2 C 5,0 C 2,2 C 93 % 1025,3 hPa 0,0 l/m 0 min 0 min 0 W/m 0,0 km/h (0 Bft) 100,00 %
15.10.2023 23:00 6,1 C 5,0 C 2,2 C 93 % 1025,3 hPa 0,0 l/m 0 min 0 min 0 W/m 0,0 km/h (0 Bft) 100,00 %
15.10.2023 23:02 6,1 C 5,0 C 2,2 C 93 % 1025,3 hPa 0,0 l/m 0 min 0 min 0 W/m 0,0 km/h (0 Bft) 100,00 %
15.10.2023 23:04 6,1 C 5,0 C 2,2 C 93 % 1025,3 hPa 0,0 l/m 0 min 0 min 0 W/m 0,0 km/h (0 Bft) 100,00 %
15.10.2023 23:10 6,1 C 5,0 C 2,2 C 93 % 1025,2 hPa 0,0 l/m 0 min 0 min 0 W/m 0,0 km/h (0 Bft) 100,00 %
15.10.2023 23:12 6,1 C 5,0 C 2,2 C 93 % 1025,1 hPa 0,0 l/m 0 min 0 min 0 W/m 6,4 km/h (2 Bft) 100,00 %
15.10.2023 23:14 6,0 C 5,0 C 2,2 C 93 % 1025,1 hPa 0,0 l/m 0 min 0 min 0 W/m 3,2 km/h (1 Bft) 97,87 %
15.10.2023 23:16 6,0 C 5,0 C 2,2 C 93 % 1025,2 hPa 0,0 l/m 0 min 0 min 0 W/m 0,0 km/h (0 Bft) 97,22 %
15.10.2023 23:18 6,0 C 5,0 C 2,2 C 93 % 1025,1 hPa 0,0 l/m 0 min 0 min 0 W/m 0,0 km/h (0 Bft) 97,87 %
15.10.2023 23:20 6,0 C 5,0 C 2,2 C 93 % 1025,2 hPa 0,0 l/m 0 min 0 min 0 W/m 0,0 km/h (0 Bft) 97,87 %
15.10.2023 23:22 6,0 C 5,0 C 2,2 C 94 % 1025,2 hPa 0,0 l/m 0 min 0 min 0 W/m 0,0 km/h (0 Bft) 97,87 %
15.10.2023 23:24 6,0 C 5,0 C 2,2 C 94 % 1025,2 hPa 0,0 l/m 0 min 0 min 0 W/m 0,0 km/h (0 Bft) 97,87 %
15.10.2023 23:26 6,0 C 5,0 C 2,2 C 94 % 1025,2 hPa 0,0 l/m 0 min 0 min 0 W/m 0,0 km/h (0 Bft) 93,62 %
15.10.2023 23:28 5,9 C 5,0 C 2,2 C 94 % 1025,2 hPa 0,0 l/m 0 min 0 min 0 W/m 3,2 km/h (1 Bft) 95,74 %
15.10.2023 23:30 5,9 C 5,0 C 2,2 C 94 % 1025,2 hPa 0,0 l/m 0 min 0 min 0 W/m 0,0 km/h (0 Bft) 97,83 %
15.10.2023 23:32 5,9 C 5,0 C 2,2 C 94 % 1025,2 hPa 0,0 l/m 0 min 0 min 0 W/m 0,0 km/h (0 Bft) 97,87 %
15.10.2023 23:34 5,9 C 5,0 C 2,2 C 94 % 1025,2 hPa 0,0 l/m 0 min 0 min 0 W/m 0,0 km/h (0 Bft) 95,74 %
15.10.2023 23:36 5,9 C 5,0 C 1,7 C 94 % 1025,2 hPa 0,0 l/m 0 min 0 min 0 W/m 0,0 km/h (0 Bft) 93,62 %
15.10.2023 23:38 5,9 C 4,4 C 1,7 C 94 % 1025,2 hPa 0,0 l/m 0 min 0 min 0 W/m 0,0 km/h (0 Bft) 97,87 %
15.10.2023 23:40 5,8 C 4,4 C 1,7 C 94 % 1025,2 hPa 0,0 l/m 0 min 0 min 0 W/m 0,0 km/h (0 Bft) 95,74 %
15.10.2023 23:42 5,8 C 4,4 C 1,7 C 94 % 1025,2 hPa 0,0 l/m 0 min 0 min 0 W/m 0,0 km/h (0 Bft) 95,74 %
15.10.2023 23:44 5,8 C 4,4 C 1,7 C 94 % 1025,2 hPa 0,0 l/m 0 min 0 min 0 W/m 0,0 km/h (0 Bft) 95,74 %
15.10.2023 23:46 5,8 C 4,4 C 1,7 C 94 % 1025,2 hPa 0,0 l/m 0 min 0 min 0 W/m 0,0 km/h (0 Bft) 97,87 %
15.10.2023 23:48 5,8 C 4,4 C 1,7 C 94 % 1025,1 hPa 0,0 l/m 0 min 0 min 0 W/m 0,0 km/h (0 Bft) 97,87 %
15.10.2023 23:50 5,7 C 4,4 C 1,7 C 94 % 1025,2 hPa 0,0 l/m 0 min 0 min 0 W/m 0,0 km/h (0 Bft) 95,65 %
15.10.2023 23:52 5,7 C 4,4 C 1,7 C 94 % 1025,1 hPa 0,0 l/m 0 min 0 min 0 W/m 0,0 km/h (0 Bft) 97,87 %
15.10.2023 23:54 5,7 C 4,4 C 1,7 C 94 % 1025,1 hPa 0,0 l/m 0 min 0 min 0 W/m 0,0 km/h (0 Bft) 97,87 %
15.10.2023 23:56 5,6 C 4,4 C 1,7 C 94 % 1025,1 hPa 0,0 l/m 0 min 0 min 0 W/m 0,0 km/h (0 Bft) 97,87 %
15.10.2023 23:58 5,6 C 4,4 C 1,7 C 94 % 1025,1 hPa 0,0 l/m 0 min 0 min 0 W/m 0,0 km/h (0 Bft) 97,87 %
_ Min-Zeit 23:56 23:38 23:36 15:40 03:52 - - - - 00:18 03:28
Minimum _ 5,6 C 4,4 C 1,7 C 74 % 1018,4 hPa - - - - 0,0 km/h (0 Bft) 61,70 %
_ Max-Zeit 15:14 14:18 12:50 07:32 22:00 06:54 15:08 07:08 15:00 16:26 00:12
Maximum _ 10,9 C 11,1 C 6,7 C 95 % 1025,3 hPa 0,4 l/m 4 min 4 min 582 W/m 35,4 km/h
NW (5 Bft)
100,00 %
Durchschnitt _ 8,2 C 7,6 C 4,4 C 90 % 1021,5 hPa #1,4 l/m #1:44 h #1:14 h 140 W/m 6,5 km/h (2 Bft) 97,20 %
© 2023 W. Hausmann